Observation data for Adrian on 06/20/2019      Previous  Date  Next       Current Mesonet Observations  Soil Data  Daily Summary Page  Observations in Plain Language
KAD1 200500Z 16015KT 21/13 A299 RMK A01 T02070128  RH  060%=      5-min Rain = 0
KAD1 200501Z 16015KT 21/13 A299 RMK A01 T02070128  RH  060%=      5-min Rain = 0
KAD1 200502Z 16015KT 21/13 A299 RMK A01 T02060128  RH  061%=      5-min Rain = 0
KAD1 200503Z 16014KT 21/13 A299 RMK A01 T02060128  RH  061%=      5-min Rain = 0
KAD1 200504Z 16014KT 21/13 A299 RMK A01 T02060128  RH  061%=      5-min Rain = 0
KAD1 200505Z 16013KT 21/13 A299 RMK A01 T02050128  RH  061%=      5-min Rain = 0
KAD1 200506Z 16013KT 20/13 A299 RMK A01 T02040128  RH  062%=      5-min Rain = 0
KAD1 200507Z 16013KT 20/13 A299 RMK A01 T02030128  RH  062%=      5-min Rain = 0
KAD1 200508Z 16013KT 20/13 A299 RMK A01 T02020128  RH  062%=      5-min Rain = 0
KAD1 200509Z 16013KT 20/13 A299 RMK A01 T02010128  RH  063%=      5-min Rain = 0
KAD1 200510Z 16014KT 20/13 A299 RMK A01 T02010129  RH  063%=      5-min Rain = 0
KAD1 200511Z 16014KT 20/13 A299 RMK A01 T02000129  RH  063%=      5-min Rain = 0
KAD1 200512Z 16014KT 20/13 A299 RMK A01 T02000128  RH  063%=      5-min Rain = 0
KAD1 200513Z 16013KT 20/13 A299 RMK A01 T01990128  RH  063%=      5-min Rain = 0
KAD1 200514Z 16014KT 20/13 A299 RMK A01 T01990129  RH  064%=      5-min Rain = 0
KAD1 200515Z 16013KT 20/13 A299 RMK A01 T01990128  RH  064%=      5-min Rain = 0
KAD1 200516Z 16013KT 20/13 A299 RMK A01 T01980129  RH  064%=      5-min Rain = 0
KAD1 200517Z 16013KT 20/13 A299 RMK A01 T01980129  RH  064%=      5-min Rain = 0
KAD1 200518Z 16012KT 20/13 A299 RMK A01 T01970128  RH  064%=      5-min Rain = 0
KAD1 200519Z 16012KT 20/13 A299 RMK A01 T01970128  RH  064%=      5-min Rain = 0
KAD1 200520Z 16011KT 20/13 A299 RMK A01 T01970127  RH  064%=      5-min Rain = 0
KAD1 200521Z 16011KT 20/13 A299 RMK A01 T01970128  RH  064%=      5-min Rain = 0
KAD1 200522Z 16011KT 20/13 A299 RMK A01 T01960127  RH  064%=      5-min Rain = 0
KAD1 200523Z 17012KT 20/13 A299 RMK A01 T01960127  RH  064%=      5-min Rain = 0
KAD1 200524Z 17012KT 20/13 A299 RMK A01 T01960126  RH  064%=      5-min Rain = 0
KAD1 200525Z 17011KT 20/13 A299 RMK A01 T01960126  RH  064%=      5-min Rain = 0
KAD1 200526Z 17012KT 20/13 A299 RMK A01 T01970127  RH  064%=      5-min Rain = 0
KAD1 200527Z 17012KT 20/13 A299 RMK A01 T01960127  RH  064%=      5-min Rain = 0
KAD1 200528Z 17011KT 20/13 A299 RMK A01 T01960128  RH  065%=      5-min Rain = 0
KAD1 200529Z 17011KT 20/13 A299 RMK A01 T01950128  RH  065%=      5-min Rain = 0
KAD1 200530Z 17011KT 20/13 A299 RMK A01 T01950128  RH  065%=      5-min Rain = 0
KAD1 200531Z 17011KT 20/13 A299 RMK A01 T01950128  RH  065%=      5-min Rain = 0
KAD1 200532Z 17011KT 19/13 A299 RMK A01 T01940128  RH  066%=      5-min Rain = 0
KAD1 200533Z 17012KT 19/13 A299 RMK A01 T01930127  RH  066%=      5-min Rain = 0
KAD1 200534Z 17011KT 19/13 A299 RMK A01 T01930127  RH  066%=      5-min Rain = 0
KAD1 200535Z 17011KT 19/13 A299 RMK A01 T01930127  RH  066%=      5-min Rain = 0
KAD1 200536Z 17012KT 19/13 A299 RMK A01 T01920127  RH  066%=      5-min Rain = 0
KAD1 200537Z 17012KT 19/13 A299 RMK A01 T01920127  RH  066%=      5-min Rain = 0
KAD1 200538Z 17012KT 19/13 A299 RMK A01 T01910127  RH  067%=      5-min Rain = 0
KAD1 200539Z 17012KT 19/13 A299 RMK A01 T01900127  RH  067%=      5-min Rain = 0
KAD1 200540Z 17011KT 19/13 A299 RMK A01 T01900126  RH  066%=      5-min Rain = 0
KAD1 200541Z 17012KT 19/13 A299 RMK A01 T01910126  RH  066%=      5-min Rain = 0
KAD1 200542Z 17012KT 19/13 A299 RMK A01 T01900126  RH  066%=      5-min Rain = 0
KAD1 200543Z 17013KT 19/13 A299 RMK A01 T01900126  RH  066%=      5-min Rain = 0
KAD1 200544Z 17013KT 19/13 A299 RMK A01 T01910126  RH  066%=      5-min Rain = 0
KAD1 200545Z 17013KT 19/13 A299 RMK A01 T01900125  RH  066%=      5-min Rain = 0
KAD1 200546Z 17014KT 19/13 A299 RMK A01 T01900125  RH  066%=      5-min Rain = 0
KAD1 200547Z 17013KT 19/13 A299 RMK A01 T01900125  RH  066%=      5-min Rain = 0
KAD1 200548Z 17013KT 19/13 A299 RMK A01 T01900125  RH  066%=      5-min Rain = 0
KAD1 200549Z 17013KT 19/13 A299 RMK A01 T01890125  RH  066%=      5-min Rain = 0
KAD1 200550Z 18014KT 19/12 A299 RMK A01 T01890124  RH  066%=      5-min Rain = 0
KAD1 200551Z 18013KT 19/12 A299 RMK A01 T01880124  RH  066%=      5-min Rain = 0
KAD1 200552Z 17013KT 19/12 A299 RMK A01 T01880123  RH  066%=      5-min Rain = 0
KAD1 200553Z 18013KT 19/12 A299 RMK A01 T01880123  RH  066%=      5-min Rain = 0
KAD1 200554Z 18014KT 19/12 A299 RMK A01 T01880123  RH  066%=      5-min Rain = 0
KAD1 200555Z 18014KT 19/12 A299 RMK A01 T01870122  RH  066%=      5-min Rain = 0
KAD1 200556Z 18014KT 19/12 A299 RMK A01 T01870121  RH  065%=      5-min Rain = 0
KAD1 200557Z 18013KT 19/12 A299 RMK A01 T01870121  RH  065%=      5-min Rain = 0
KAD1 200558Z 18013KT 19/12 A299 RMK A01 T01870120  RH  065%=      5-min Rain = 0
KAD1 200559Z 18013KT 19/12 A299 RMK A01 T01870120  RH  065%=      5-min Rain = 0
KAD1 200600Z 18013KT 19/12 A299 RMK A01 T01870120  RH  065%=      5-min Rain = 0
KAD1 200601Z 18013KT 19/12 A299 RMK A01 T01870121  RH  065%=      5-min Rain = 0
KAD1 200602Z 18014KT 19/12 A299 RMK A01 T01870121  RH  065%=      5-min Rain = 0
KAD1 200603Z 18014KT 19/12 A299 RMK A01 T01870120  RH  065%=      5-min Rain = 0
KAD1 200604Z 18014KT 19/12 A299 RMK A01 T01860121  RH  066%=      5-min Rain = 0
KAD1 200605Z 18015KT 19/12 A299 RMK A01 T01860120  RH  065%=      5-min Rain = 0
KAD1 200606Z 18015KT 19/12 A299 RMK A01 T01870120  RH  065%=      5-min Rain = 0
KAD1 200607Z 18015KT 19/12 A299 RMK A01 T01880121  RH  065%=      5-min Rain = 0
KAD1 200608Z 18015KT 19/12 A299 RMK A01 T01890121  RH  065%=      5-min Rain = 0
KAD1 200609Z 18014KT 19/12 A299 RMK A01 T01900122  RH  065%=      5-min Rain = 0
KAD1 200610Z 18014KT 19/12 A299 RMK A01 T01900123  RH  065%=      5-min Rain = 0
KAD1 200611Z 18014KT 19/12 A299 RMK A01 T01900123  RH  065%=      5-min Rain = 0
KAD1 200612Z 18013KT 19/12 A299 RMK A01 T01890123  RH  065%=      5-min Rain = 0
KAD1 200613Z 18014KT 19/12 A299 RMK A01 T01890123  RH  065%=      5-min Rain = 0
KAD1 200614Z 18013KT 19/12 A299 RMK A01 T01880123  RH  066%=      5-min Rain = 0
KAD1 200615Z 18014KT 19/12 A299 RMK A01 T01880124  RH  067%=      5-min Rain = 0
KAD1 200616Z 18014KT 19/13 A299 RMK A01 T01880125  RH  067%=      5-min Rain = 0
KAD1 200617Z 18014KT 19/13 A299 RMK A01 T01880126  RH  067%=      5-min Rain = 0
KAD1 200618Z 18014KT 19/13 A299 RMK A01 T01880126  RH  067%=      5-min Rain = 0
KAD1 200619Z 18014KT 19/13 A299 RMK A01 T01880127  RH  068%=      5-min Rain = 0
KAD1 200620Z 18014KT 19/13 A299 RMK A01 T01890128  RH  068%=      5-min Rain = 0
KAD1 200621Z 18014KT 19/13 A299 RMK A01 T01890129  RH  068%=      5-min Rain = 0
KAD1 200622Z 18014KT 19/13 A299 RMK A01 T01900130  RH  068%=      5-min Rain = 0
KAD1 200623Z 18014KT 19/13 A299 RMK A01 T01900130  RH  068%=      5-min Rain = 0
KAD1 200624Z 18015KT 19/13 A299 RMK A01 T01910131  RH  068%=      5-min Rain = 0
KAD1 200625Z 18015KT 19/13 A299 RMK A01 T01910132  RH  068%=      5-min Rain = 0
KAD1 200626Z 18015KT 19/13 A299 RMK A01 T01910132  RH  069%=      5-min Rain = 0
KAD1 200627Z 18015KT 19/13 A299 RMK A01 T01910132  RH  069%=      5-min Rain = 0
KAD1 200628Z 18015KT 19/13 A299 RMK A01 T01910133  RH  069%=      5-min Rain = 0
KAD1 200629Z 18014KT 19/13 A299 RMK A01 T01910133  RH  069%=      5-min Rain = 0
KAD1 200630Z 18013KT 19/13 A299 RMK A01 T01920133  RH  069%=      5-min Rain = 0
KAD1 200631Z 18015KT 19/13 A299 RMK A01 T01930133  RH  068%=      5-min Rain = 0
KAD1 200632Z 18015KT 19/13 A299 RMK A01 T01930134  RH  069%=      5-min Rain = 0
KAD1 200633Z 18016KT 19/13 A299 RMK A01 T01930134  RH  069%=      5-min Rain = 0
KAD1 200634Z 18015KT 19/14 A299 RMK A01 T01930135  RH  069%=      5-min Rain = 0
KAD1 200635Z 18015KT 19/14 A299 RMK A01 T01930135  RH  069%=      5-min Rain = 0
KAD1 200636Z 18015KT 19/14 A299 RMK A01 T01920135  RH  069%=      5-min Rain = 0
KAD1 200637Z 18015KT 19/14 A299 RMK A01 T01920135  RH  070%=      5-min Rain = 0
KAD1 200638Z 18014KT 19/14 A299 RMK A01 T01920135  RH  070%=      5-min Rain = 0
KAD1 200639Z 18015KT 19/14 A299 RMK A01 T01910135  RH  070%=      5-min Rain = 0
KAD1 200640Z 18014KT 19/14 A299 RMK A01 T01910135  RH  070%=      5-min Rain = 0
KAD1 200641Z 18014KT 19/14 A299 RMK A01 T01910135  RH  070%=      5-min Rain = 0
KAD1 200642Z 18014KT 19/14 A299 RMK A01 T01910136  RH  070%=      5-min Rain = 0
KAD1 200643Z 18014KT 19/14 A299 RMK A01 T01910136  RH  070%=      5-min Rain = 0
KAD1 200644Z 18015KT 19/14 A299 RMK A01 T01910136  RH  070%=      5-min Rain = 0
KAD1 200645Z 18014KT 19/14 A299 RMK A01 T01910136  RH  070%=      5-min Rain = 0
KAD1 200646Z 18013KT 19/14 A299 RMK A01 T01910135  RH  070%=      5-min Rain = 0
KAD1 200647Z 18015KT 19/14 A299 RMK A01 T01910136  RH  070%=      5-min Rain = 0
KAD1 200648Z 18015KT 19/14 A299 RMK A01 T01910136  RH  070%=      5-min Rain = 0
KAD1 200649Z 18015KT 19/14 A299 RMK A01 T01910136  RH  071%=      5-min Rain = 0
KAD1 200650Z 18015KT 19/14 A299 RMK A01 T01910136  RH  071%=      5-min Rain = 0
KAD1 200651Z 18015KT 19/14 A299 RMK A01 T01910137  RH  071%=      5-min Rain = 0
KAD1 200652Z 18015KT 19/14 A299 RMK A01 T01900137  RH  071%=      5-min Rain = 0
KAD1 200653Z 19015KT 19/14 A299 RMK A01 T01900137  RH  071%=      5-min Rain = 0
KAD1 200654Z 19014KT 19/14 A299 RMK A01 T01900137  RH  071%=      5-min Rain = 0
KAD1 200655Z 19014KT 19/14 A299 RMK A01 T01890138  RH  072%=      5-min Rain = 0
KAD1 200656Z 18014KT 19/14 A299 RMK A01 T01890138  RH  072%=      5-min Rain = 0
KAD1 200657Z 18013KT 19/14 A299 RMK A01 T01890138  RH  072%=      5-min Rain = 0
KAD1 200658Z 18014KT 19/14 A299 RMK A01 T01890138  RH  072%=      5-min Rain = 0
KAD1 200659Z 18014KT 19/14 A299 RMK A01 T01890138  RH  072%=      5-min Rain = 0
KAD1 200700Z 18014KT 19/14 A299 RMK A01 T01890138  RH  072%=      5-min Rain = 0
KAD1 200701Z 18014KT 19/14 A299 RMK A01 T01900139  RH  072%=      5-min Rain = 0
KAD1 200702Z 18014KT 19/14 A299 RMK A01 T01900139  RH  072%=      5-min Rain = 0
KAD1 200703Z 18014KT 19/14 A299 RMK A01 T01900139  RH  072%=      5-min Rain = 0
KAD1 200704Z 18014KT 19/14 A299 RMK A01 T01900139  RH  072%=      5-min Rain = 0
KAD1 200705Z 18013KT 19/14 A299 RMK A01 T01900140  RH  072%=      5-min Rain = 0
KAD1 200706Z 18014KT 19/14 A299 RMK A01 T01900141  RH  073%=      5-min Rain = 0
KAD1 200707Z 18014KT 19/14 A299 RMK A01 T01890140  RH  073%=      5-min Rain = 0
KAD1 200708Z 18014KT 19/14 A299 RMK A01 T01900140  RH  073%=      5-min Rain = 0
KAD1 200709Z 18014KT 19/14 A299 RMK A01 T01890140  RH  073%=      5-min Rain = 0
KAD1 200710Z 18013KT 19/14 A299 RMK A01 T01890140  RH  073%=      5-min Rain = 0
KAD1 200711Z 18013KT 19/14 A299 RMK A01 T01880140  RH  074%=      5-min Rain = 0
KAD1 200712Z 18012KT 19/14 A2989 RMK A01 T01890141  RH  074%=      5-min Rain = 0
KAD1 200713Z 18013KT 19/14 A2989 RMK A01 T01880141  RH  074%=      5-min Rain = 0
KAD1 200714Z 18013KT 19/14 A2989 RMK A01 T01870141  RH  075%=      5-min Rain = 0
KAD1 200715Z 18014KT 19/14 A2989 RMK A01 T01870142  RH  075%=      5-min Rain = 0
KAD1 200716Z 18014KT 19/14 A2989 RMK A01 T01860142  RH  075%=      5-min Rain = 0
KAD1 200717Z 18014KT 19/14 A2989 RMK A01 T01860142  RH  075%=      5-min Rain = 0
KAD1 200718Z 18014KT 19/14 A2989 RMK A01 T01860142  RH  075%=      5-min Rain = 0
KAD1 200719Z 18014KT 19/14 A2989 RMK A01 T01860142  RH  075%=      5-min Rain = 0
KAD1 200720Z 18013KT 19/14 A2989 RMK A01 T01860141  RH  075%=      5-min Rain = 0
KAD1 200721Z 18013KT 19/14 A2989 RMK A01 T01860141  RH  075%=      5-min Rain = 0
KAD1 200722Z 19012KT 19/14 A2989 RMK A01 T01860141  RH  075%=      5-min Rain = 0
KAD1 200723Z 19013KT 19/14 A2989 RMK A01 T01850141  RH  075%=      5-min Rain = 0
KAD1 200724Z 19013KT 19/14 A2989 RMK A01 T01850141  RH  075%=      5-min Rain = 0
KAD1 200725Z 19013KT 18/14 A2989 RMK A01 T01840141  RH  076%=      5-min Rain = 0
KAD1 200726Z 19013KT 19/14 A2989 RMK A01 T01850141  RH  076%=      5-min Rain = 0
KAD1 200727Z 19013KT 19/14 A2989 RMK A01 T01860141  RH  075%=      5-min Rain = 0
KAD1 200728Z 19013KT 19/14 A2989 RMK A01 T01860141  RH  075%=      5-min Rain = 0
KAD1 200729Z 19013KT 19/14 A2989 RMK A01 T01860141  RH  075%=      5-min Rain = 0
KAD1 200730Z 18014KT 19/14 A2989 RMK A01 T01860142  RH  075%=      5-min Rain = 0
KAD1 200731Z 18013KT 19/14 A2989 RMK A01 T01860142  RH  075%=      5-min Rain = 0
KAD1 200732Z 19013KT 19/14 A2989 RMK A01 T01870142  RH  075%=      5-min Rain = 0
KAD1 200733Z 18013KT 19/14 A2989 RMK A01 T01870142  RH  075%=      5-min Rain = 0
KAD1 200734Z 18014KT 19/14 A2989 RMK A01 T01860142  RH  076%=      5-min Rain = 0
KAD1 200735Z 18014KT 19/14 A2989 RMK A01 T01850143  RH  076%=      5-min Rain = 0
KAD1 200736Z 18014KT 19/14 A2989 RMK A01 T01850143  RH  076%=      5-min Rain = 0
KAD1 200737Z 19015KT 19/14 A2989 RMK A01 T01860143  RH  076%=      5-min Rain = 0
KAD1 200738Z 18015KT 19/14 A2989 RMK A01 T01870143  RH  076%=      5-min Rain = 0
KAD1 200739Z 18015KT 19/14 A2989 RMK A01 T01860143  RH  076%=      5-min Rain = 0
KAD1 200740Z 18015KT 19/14 A2989 RMK A01 T01860143  RH  076%=      5-min Rain = 0
KAD1 200741Z 18015KT 19/14 A2989 RMK A01 T01860143  RH  076%=      5-min Rain = 0
KAD1 200742Z 18015KT 19/14 A2988 RMK A01 T01860143  RH  076%=      5-min Rain = 0
KAD1 200743Z 18015KT 19/14 A2988 RMK A01 T01860143  RH  076%=      5-min Rain = 0
KAD1 200744Z 18015KT 19/14 A2988 RMK A01 T01860142  RH  076%=      5-min Rain = 0
KAD1 200745Z 18015KT 19/14 A2988 RMK A01 T01860142  RH  076%=      5-min Rain = 0
KAD1 200746Z 18014KT 19/14 A2988 RMK A01 T01860142  RH  076%=      5-min Rain = 0
KAD1 200747Z 18014KT 19/14 A2988 RMK A01 T01850142  RH  076%=      5-min Rain = 0
KAD1 200748Z 18014KT 18/14 A2988 RMK A01 T01840142  RH  076%=      5-min Rain = 0
KAD1 200749Z 18014KT 18/14 A2988 RMK A01 T01840142  RH  077%=      5-min Rain = 0
KAD1 200750Z 18014KT 18/14 A2988 RMK A01 T01830142  RH  077%=      5-min Rain = 0
KAD1 200751Z 18014KT 18/14 A2988 RMK A01 T01820142  RH  077%=      5-min Rain = 0
KAD1 200752Z 18014KT 18/14 A2988 RMK A01 T01810142  RH  078%=      5-min Rain = 0
KAD1 200753Z 18014KT 18/14 A2988 RMK A01 T01810142  RH  078%=      5-min Rain = 0
KAD1 200754Z 18014KT 18/14 A2988 RMK A01 T01800141  RH  078%=      5-min Rain = 0
KAD1 200755Z 18015KT 18/14 A2988 RMK A01 T01800141  RH  078%=      5-min Rain = 0
KAD1 200756Z 18014KT 18/14 A2988 RMK A01 T01800141  RH  078%=      5-min Rain = 0
KAD1 200757Z 18014KT 18/14 A2988 RMK A01 T01800141  RH  078%=      5-min Rain = 0
KAD1 200758Z 18014KT 18/14 A2988 RMK A01 T01810141  RH  078%=      5-min Rain = 0
KAD1 200759Z 18014KT 18/14 A2988 RMK A01 T01810141  RH  077%=      5-min Rain = 0
KAD1 200800Z 18015KT 18/14 A2988 RMK A01 T01810141  RH  078%=      5-min Rain = 0
KAD1 200801Z 18015KT 18/14 A2988 RMK A01 T01800141  RH  078%=      5-min Rain = 0
KAD1 200802Z 18015KT 18/14 A2988 RMK A01 T01810141  RH  078%=      5-min Rain = 0
KAD1 200803Z 18015KT 18/14 A2988 RMK A01 T01810142  RH  078%=      5-min Rain = 0
KAD1 200804Z 18015KT 18/14 A2988 RMK A01 T01810142  RH  078%=      5-min Rain = 0
KAD1 200805Z 18015KT 18/14 A2988 RMK A01 T01810142  RH  078%=      5-min Rain = 0
KAD1 200806Z 18014KT 18/14 A2988 RMK A01 T01800142  RH  078%=      5-min Rain = 0
KAD1 200807Z 18014KT 18/14 A2988 RMK A01 T01800142  RH  078%=      5-min Rain = 0
KAD1 200808Z 18013KT 18/14 A2988 RMK A01 T01800142  RH  078%=      5-min Rain = 0
KAD1 200809Z 18014KT 18/14 A2988 RMK A01 T01800142  RH  078%=      5-min Rain = 0
KAD1 200810Z 18014KT 18/14 A2988 RMK A01 T01790142  RH  079%=      5-min Rain = 0
KAD1 200811Z 18014KT 18/14 A2988 RMK A01 T01790142  RH  079%=      5-min Rain = 0
KAD1 200812Z 19014KT 18/14 A2988 RMK A01 T01790142  RH  079%=      5-min Rain = 0
KAD1 200813Z 18014KT 18/14 A2988 RMK A01 T01790142  RH  079%=      5-min Rain = 0
KAD1 200814Z 18014KT 18/14 A2988 RMK A01 T01790142  RH  079%=      5-min Rain = 0
KAD1 200815Z 18014KT 18/14 A2988 RMK A01 T01790143  RH  079%=      5-min Rain = 0
KAD1 200816Z 18014KT 18/14 A2988 RMK A01 T01790144  RH  079%=      5-min Rain = 0
KAD1 200817Z 18015KT 18/14 A2988 RMK A01 T01800144  RH  079%=      5-min Rain = 0
KAD1 200818Z 18015KT 18/14 A2988 RMK A01 T01800144  RH  079%=      5-min Rain = 0
KAD1 200819Z 18014KT 18/14 A2988 RMK A01 T01800144  RH  079%=      5-min Rain = 0
KAD1 200820Z 18014KT 18/15 A2988 RMK A01 T01800145  RH  080%=      5-min Rain = 0
KAD1 200821Z 18014KT 18/15 A2988 RMK A01 T01810146  RH  080%=      5-min Rain = 0
KAD1 200822Z 18014KT 18/15 A2988 RMK A01 T01810147  RH  080%=      5-min Rain = 0
KAD1 200823Z 18014KT 18/15 A2988 RMK A01 T01820148  RH  080%=      5-min Rain = 0
KAD1 200824Z 18015KT 18/15 A2988 RMK A01 T01820147  RH  080%=      5-min Rain = 0
KAD1 200825Z 18015KT 18/15 A2988 RMK A01 T01820147  RH  080%=      5-min Rain = 0
KAD1 200826Z 18015KT 18/15 A2988 RMK A01 T01820147  RH  080%=      5-min Rain = 0
KAD1 200827Z 18014KT 18/15 A2988 RMK A01 T01820147  RH  080%=      5-min Rain = 0
KAD1 200828Z 18015KT 18/15 A2988 RMK A01 T01820148  RH  080%=      5-min Rain = 0
KAD1 200829Z 18015KT 18/15 A2988 RMK A01 T01820148  RH  080%=      5-min Rain = 0
KAD1 200830Z 18014KT 18/15 A2988 RMK A01 T01810148  RH  081%=      5-min Rain = 0
KAD1 200831Z 18013KT 18/15 A2988 RMK A01 T01810148  RH  081%=      5-min Rain = 0
KAD1 200832Z 18014KT 18/15 A2988 RMK A01 T01810148  RH  081%=      5-min Rain = 0
KAD1 200833Z 18014KT 18/15 A2988 RMK A01 T01810148  RH  081%=      5-min Rain = 0
KAD1 200834Z 18014KT 18/15 A2988 RMK A01 T01800148  RH  081%=      5-min Rain = 0
KAD1 200835Z 18014KT 18/15 A2988 RMK A01 T01800148  RH  082%=      5-min Rain = 0
KAD1 200836Z 18013KT 18/15 A2988 RMK A01 T01790149  RH  082%=      5-min Rain = 0
KAD1 200837Z 18013KT 18/15 A2988 RMK A01 T01790149  RH  083%=      5-min Rain = 0
KAD1 200838Z 18013KT 18/15 A2988 RMK A01 T01790149  RH  083%=      5-min Rain = 0
KAD1 200839Z 18014KT 18/15 A2988 RMK A01 T01790150  RH  083%=      5-min Rain = 0
KAD1 200840Z 18014KT 18/15 A2988 RMK A01 T01780150  RH  083%=      5-min Rain = 0
KAD1 200841Z 18014KT 18/15 A2988 RMK A01 T01790150  RH  084%=      5-min Rain = 0
KAD1 200842Z 18014KT 18/15 A2988 RMK A01 T01790151  RH  083%=      5-min Rain = 0
KAD1 200843Z 18013KT 18/15 A2988 RMK A01 T01800151  RH  083%=      5-min Rain = 0
KAD1 200844Z 18014KT 18/15 A2988 RMK A01 T01790151  RH  083%=      5-min Rain = 0
KAD1 200845Z 18014KT 18/15 A2988 RMK A01 T01790151  RH  084%=      5-min Rain = 0
KAD1 200846Z 18014KT 18/15 A2988 RMK A01 T01800152  RH  084%=      5-min Rain = 0
KAD1 200847Z 18015KT 18/15 A2988 RMK A01 T01800152  RH  084%=      5-min Rain = 0
KAD1 200848Z 18015KT 18/15 A2988 RMK A01 T01800153  RH  084%=      5-min Rain = 0
KAD1 200849Z 18015KT 18/15 A2988 RMK A01 T01810153  RH  084%=      5-min Rain = 0
KAD1 200850Z 18014KT 18/15 A2987 RMK A01 T01810153  RH  084%=      5-min Rain = 0
KAD1 200851Z 18014KT 18/15 A2988 RMK A01 T01810153  RH  084%=      5-min Rain = 0
KAD1 200852Z 18014KT 18/15 A2988 RMK A01 T01810154  RH  084%=      5-min Rain = 0
KAD1 200853Z 18014KT 18/15 A2988 RMK A01 T01810154  RH  084%=      5-min Rain = 0
KAD1 200854Z 18014KT 18/15 A2988 RMK A01 T01810154  RH  084%=      5-min Rain = 0
KAD1 200855Z 18015KT 18/16 A2988 RMK A01 T01810155  RH  084%=      5-min Rain = 0
KAD1 200856Z 19015KT 18/16 A2988 RMK A01 T01820156  RH  084%=      5-min Rain = 0
KAD1 200857Z 19014KT 18/16 A2988 RMK A01 T01820156  RH  085%=      5-min Rain = 0
KAD1 200858Z 19014KT 18/16 A2988 RMK A01 T01830157  RH  085%=      5-min Rain = 0
KAD1 200859Z 18014KT 18/16 A2988 RMK A01 T01830157  RH  085%=      5-min Rain = 0
KAD1 200900Z 18015KT 18/16 A2987 RMK A01 T01830157  RH  085%=      5-min Rain = 0
KAD1 200901Z 18016KT 18/16 A2987 RMK A01 T01840158  RH  085%=      5-min Rain = 0
KAD1 200902Z 18015KT 19/16 A2987 RMK A01 T01850159  RH  085%=      5-min Rain = 0
KAD1 200903Z 18016KT 19/16 A2987 RMK A01 T01850159  RH  085%=      5-min Rain = 0
KAD1 200904Z 18014KT 18/16 A2988 RMK A01 T01840159  RH  085%=      5-min Rain = 0
KAD1 200905Z 18015KT 18/16 A2988 RMK A01 T01840159  RH  085%=      5-min Rain = 0
KAD1 200906Z 18015KT 18/16 A2988 RMK A01 T01840160  RH  086%=      5-min Rain = 0
KAD1 200907Z 18015KT 18/16 A2988 RMK A01 T01840160  RH  086%=      5-min Rain = 0
KAD1 200908Z 18015KT 18/16 A2988 RMK A01 T01840159  RH  086%=      5-min Rain = 0
KAD1 200909Z 18015KT 18/16 A2988 RMK A01 T01830160  RH  086%=      5-min Rain = 0
KAD1 200910Z 18015KT 18/16 A2988 RMK A01 T01830160  RH  086%=      5-min Rain = 0
KAD1 200911Z 18014KT 18/16 A2988 RMK A01 T01830160  RH  086%=      5-min Rain = 0
KAD1 200912Z 18015KT 18/16 A2988 RMK A01 T01830160  RH  087%=      5-min Rain = 0
KAD1 200913Z 18015KT 18/16 A2988 RMK A01 T01830160  RH  087%=      5-min Rain = 0
KAD1 200914Z 18015KT 18/16 A2988 RMK A01 T01830160  RH  087%=      5-min Rain = 0
KAD1 200915Z 18015KT 18/16 A2988 RMK A01 T01830160  RH  087%=      5-min Rain = 0
KAD1 200916Z 18015KT 18/16 A2988 RMK A01 T01830161  RH  087%=      5-min Rain = 0
KAD1 200917Z 18014KT 18/16 A2988 RMK A01 T01820161  RH  087%=      5-min Rain = 0
KAD1 200918Z 18014KT 18/16 A2988 RMK A01 T01820161  RH  087%=      5-min Rain = 0
KAD1 200919Z 18015KT 18/16 A2988 RMK A01 T01820161  RH  088%=      5-min Rain = 0
KAD1 200920Z 18015KT 18/16 A2988 RMK A01 T01820161  RH  088%=      5-min Rain = 0
KAD1 200921Z 18015KT 18/16 A2988 RMK A01 T01810161  RH  088%=      5-min Rain = 0
KAD1 200922Z 18015KT 18/16 A2988 RMK A01 T01810161  RH  088%=      5-min Rain = 0
KAD1 200923Z 18015KT 18/16 A2988 RMK A01 T01810161  RH  088%=      5-min Rain = 0
KAD1 200924Z 18015KT 18/16 A2988 RMK A01 T01810161  RH  088%=      5-min Rain = 0
KAD1 200925Z 18015KT 18/16 A2988 RMK A01 T01810161  RH  088%=      5-min Rain = 0
KAD1 200926Z 18016KT 18/16 A2988 RMK A01 T01810161  RH  088%=      5-min Rain = 0
KAD1 200927Z 18015KT 18/16 A2988 RMK A01 T01810162  RH  088%=      5-min Rain = 0
KAD1 200928Z 18015KT 18/16 A2988 RMK A01 T01810162  RH  088%=      5-min Rain = 0
KAD1 200929Z 18015KT 18/16 A2988 RMK A01 T01810162  RH  088%=      5-min Rain = 0
KAD1 200930Z 18015KT 18/16 A2988 RMK A01 T01810162  RH  089%=      5-min Rain = 0
KAD1 200931Z 18016KT 18/16 A2988 RMK A01 T01810162  RH  089%=      5-min Rain = 0
KAD1 200932Z 18016KT 18/16 A2988 RMK A01 T01810162  RH  089%=      5-min Rain = 0
KAD1 200933Z 19016KT 18/16 A2988 RMK A01 T01810162  RH  089%=      5-min Rain = 0
KAD1 200934Z 18016KT 18/16 A2988 RMK A01 T01810162  RH  089%=      5-min Rain = 0
KAD1 200935Z 19015KT 18/16 A2988 RMK A01 T01810163  RH  089%=      5-min Rain = 0
KAD1 200936Z 18016KT 18/16 A2988 RMK A01 T01810162  RH  089%=      5-min Rain = 0
KAD1 200937Z 18016KT 18/16 A2988 RMK A01 T01800163  RH  089%=      5-min Rain = 0
KAD1 200938Z 18016KT 18/16 A2988 RMK A01 T01810163  RH  090%=      5-min Rain = 0
KAD1 200939Z 18016KT 18/16 A2988 RMK A01 T01810163  RH  090%=      5-min Rain = 0
KAD1 200940Z 18016KT 18/16 A2988 RMK A01 T01810164  RH  090%=      5-min Rain = 0
KAD1 200941Z 18015KT 18/16 A2988 RMK A01 T01810164  RH  090%=      5-min Rain = 0
KAD1 200942Z 18015KT 18/16 A2988 RMK A01 T01810164  RH  090%=      5-min Rain = 0
KAD1 200943Z 18015KT 18/17 A2988 RMK A01 T01810165  RH  090%=      5-min Rain = 0
KAD1 200944Z 18015KT 18/17 A2988 RMK A01 T01810165  RH  090%=      5-min Rain = 0
KAD1 200945Z 18015KT 18/17 A2988 RMK A01 T01810165  RH  090%=      5-min Rain = 0
KAD1 200946Z 18015KT 18/17 A2988 RMK A01 T01810165  RH  091%=      5-min Rain = 0
KAD1 200947Z 18015KT 18/17 A2988 RMK A01 T01810166  RH  091%=      5-min Rain = 0
KAD1 200948Z 18015KT 18/17 A2988 RMK A01 T01820166  RH  091%=      5-min Rain = 0
KAD1 200949Z 18016KT 18/17 A2988 RMK A01 T01820167  RH  091%=      5-min Rain = 0
KAD1 200950Z 18016KT 18/17 A2988 RMK A01 T01830167  RH  091%=      5-min Rain = 0
KAD1 200951Z 18015KT 18/17 A2988 RMK A01 T01830167  RH  091%=      5-min Rain = 0
KAD1 200952Z 18016KT 18/17 A2988 RMK A01 T01830167  RH  091%=      5-min Rain = 0
KAD1 200953Z 18016KT 18/17 A2988 RMK A01 T01830168  RH  091%=      5-min Rain = 0
KAD1 200954Z 18015KT 18/17 A2988 RMK A01 T01830168  RH  091%=      5-min Rain = 0
KAD1 200955Z 18016KT 18/17 A2988 RMK A01 T01830168  RH  091%=      5-min Rain = 0
KAD1 200956Z 18015KT 18/17 A2988 RMK A01 T01840169  RH  091%=      5-min Rain = 0
KAD1 200957Z 18016KT 18/17 A2988 RMK A01 T01840169  RH  091%=      5-min Rain = 0
KAD1 200958Z 18016KT 18/17 A2988 RMK A01 T01840169  RH  091%=      5-min Rain = 0
KAD1 200959Z 18015KT 18/17 A2988 RMK A01 T01840169  RH  091%=      5-min Rain = 0
KAD1 201000Z 18016KT 18/17 A2988 RMK A01 T01840169  RH  091%=      5-min Rain = 0
KAD1 201001Z 18016KT 18/17 A2988 RMK A01 T01840169  RH  091%=      5-min Rain = 0
KAD1 201002Z 18016KT 18/17 A2988 RMK A01 T01840170  RH  091%=      5-min Rain = 0
KAD1 201003Z 18015KT 18/17 A2988 RMK A01 T01840170  RH  091%=      5-min Rain = 0
KAD1 201004Z 18015KT 18/17 A2988 RMK A01 T01840170  RH  091%=      5-min Rain = 0
KAD1 201005Z 18016KT 18/17 A2988 RMK A01 T01840170  RH  092%=      5-min Rain = 0
KAD1 201006Z 18015KT 18/17 A2988 RMK A01 T01840170  RH  092%=      5-min Rain = 0
KAD1 201007Z 18015KT 18/17 A2988 RMK A01 T01840170  RH  091%=      5-min Rain = 0
KAD1 201008Z 18015KT 18/17 A2988 RMK A01 T01840170  RH  092%=      5-min Rain = 0
KAD1 201009Z 18014KT 18/17 A2988 RMK A01 T01840170  RH  092%=      5-min Rain = 0
KAD1 201010Z 18015KT 18/17 A2988 RMK A01 T01830170  RH  092%=      5-min Rain = 0
KAD1 201011Z 18016KT 18/17 A2988 RMK A01 T01840170  RH  092%=      5-min Rain = 0
KAD1 201012Z 18015KT 18/17 A2988 RMK A01 T01840170  RH  092%=      5-min Rain = 0
KAD1 201013Z 18015KT 18/17 A2987 RMK A01 T01840170  RH  092%=      5-min Rain = 0
KAD1 201014Z 18015KT 18/17 A2988 RMK A01 T01830170  RH  092%=      5-min Rain = 0
KAD1 201015Z 18014KT 18/17 A2988 RMK A01 T01840170  RH  092%=      5-min Rain = 0
KAD1 201016Z 18015KT 18/17 A2988 RMK A01 T01840170  RH  092%=      5-min Rain = 0
KAD1 201017Z 19016KT 18/17 A2988 RMK A01 T01840170  RH  092%=      5-min Rain = 0
KAD1 201018Z 18016KT 18/17 A2988 RMK A01 T01840170  RH  092%=      5-min Rain = 0
KAD1 201019Z 18016KT 18/17 A2988 RMK A01 T01830170  RH  092%=      5-min Rain = 0
KAD1 201020Z 18016KT 18/17 A2988 RMK A01 T01830170  RH  092%=      5-min Rain = 0
KAD1 201021Z 18016KT 18/17 A2988 RMK A01 T01830170  RH  092%=      5-min Rain = 0
KAD1 201022Z 18015KT 18/17 A2987 RMK A01 T01830170  RH  092%=      5-min Rain = 0
KAD1 201023Z 18015KT 18/17 A2988 RMK A01 T01830169  RH  092%=      5-min Rain = 0
KAD1 201024Z 18014KT 18/17 A2988 RMK A01 T01830169  RH  092%=      5-min Rain = 0
KAD1 201025Z 18015KT 18/17 A2988 RMK A01 T01820169  RH  092%=      5-min Rain = 0
KAD1 201026Z 18016KT 18/17 A2988 RMK A01 T01820169  RH  092%=      5-min Rain = 0
KAD1 201027Z 18015KT 18/17 A2988 RMK A01 T01820169  RH  092%=      5-min Rain = 0
KAD1 201028Z 18014KT 18/17 A2988 RMK A01 T01820169  RH  092%=      5-min Rain = 0
KAD1 201029Z 18016KT 18/17 A2988 RMK A01 T01820169  RH  092%=      5-min Rain = 0
KAD1 201030Z 19015KT 18/17 A2988 RMK A01 T01820169  RH  092%=      5-min Rain = 0
KAD1 201031Z 18014KT 18/17 A2988 RMK A01 T01820169  RH  092%=      5-min Rain = 0
KAD1 201032Z 18015KT 18/17 A2988 RMK A01 T01820168  RH  092%=      5-min Rain = 0
KAD1 201033Z 18014KT 18/17 A2988 RMK A01 T01820168  RH  092%=      5-min Rain = 0
KAD1 201034Z 18015KT 18/17 A2988 RMK A01 T01810168  RH  092%=      5-min Rain = 0
KAD1 201035Z 18015KT 18/17 A2988 RMK A01 T01810169  RH  092%=      5-min Rain = 0
KAD1 201036Z 18014KT 18/17 A2988 RMK A01 T01810168  RH  092%=      5-min Rain = 0
KAD1 201037Z 18013KT 18/17 A2988 RMK A01 T01810168  RH  092%=      5-min Rain = 0
KAD1 201038Z 18016KT 18/17 A2988 RMK A01 T01800168  RH  092%=      5-min Rain = 0
KAD1 201039Z 19015KT 18/17 A2988 RMK A01 T01800167  RH  092%=      5-min Rain = 0
KAD1 201040Z 19013KT 18/17 A2988 RMK A01 T01800167  RH  092%=      5-min Rain = 0
KAD1 201041Z 19012KT 18/17 A2988 RMK A01 T01800167  RH  092%=      5-min Rain = 0
KAD1 201042Z 19013KT 18/17 A2988 RMK A01 T01800167  RH  092%=      5-min Rain = 0
KAD1 201043Z 19015KT 18/17 A2988 RMK A01 T01800167  RH  092%=      5-min Rain = 0
KAD1 201044Z 18015KT 18/17 A2987 RMK A01 T01800167  RH  092%=      5-min Rain = 0
KAD1 201045Z 18015KT 18/17 A2987 RMK A01 T01800166  RH  092%=      5-min Rain = 0
KAD1 201046Z 18016KT 18/17 A2988 RMK A01 T01800166  RH  091%=      5-min Rain = 0
KAD1 201047Z 18015KT 18/17 A2987 RMK A01 T01810166  RH  091%=      5-min Rain = 0
KAD1 201048Z 18014KT 18/17 A2988 RMK A01 T01800166  RH  091%=      5-min Rain = 0
KAD1 201049Z 18014KT 18/17 A2987 RMK A01 T01800166  RH  091%=      5-min Rain = 0
KAD1 201050Z 19015KT 18/17 A2987 RMK A01 T01790165  RH  091%=      5-min Rain = 0
KAD1 201051Z 19015KT 18/17 A2987 RMK A01 T01790165  RH  091%=      5-min Rain = 0
KAD1 201052Z 19014KT 18/16 A2987 RMK A01 T01790164  RH  091%=      5-min Rain = 0
KAD1 201053Z 18014KT 18/16 A2987 RMK A01 T01790164  RH  091%=      5-min Rain = 0
KAD1 201054Z 19013KT 18/16 A2987 RMK A01 T01790164  RH  091%=      5-min Rain = 0
KAD1 201055Z 19013KT 18/16 A2987 RMK A01 T01790164  RH  091%=      5-min Rain = 0
KAD1 201056Z 19013KT 18/16 A2987 RMK A01 T01790163  RH  091%=      5-min Rain = 0
KAD1 201057Z 19014KT 18/16 A2987 RMK A01 T01790163  RH  091%=      5-min Rain = 0
KAD1 201058Z 19014KT 18/16 A2987 RMK A01 T01780162  RH  090%=      5-min Rain = 0
KAD1 201059Z 18013KT 18/16 A2987 RMK A01 T01780162  RH  090%=      5-min Rain = 0
KAD1 201100Z 18013KT 18/16 A2987 RMK A01 T01780162  RH  090%=      5-min Rain = 0
KAD1 201101Z 19014KT 18/16 A2987 RMK A01 T01770162  RH  091%=      5-min Rain = 0
KAD1 201102Z 19014KT 18/16 A2987 RMK A01 T01770161  RH  091%=      5-min Rain = 0
KAD1 201103Z 19015KT 18/16 A2987 RMK A01 T01770161  RH  090%=      5-min Rain = 0
KAD1 201104Z 19014KT 18/16 A2987 RMK A01 T01770160  RH  090%=      5-min Rain = 0
KAD1 201105Z 19014KT 18/16 A2987 RMK A01 T01770160  RH  089%=      5-min Rain = 0
KAD1 201106Z 19014KT 18/16 A2987 RMK A01 T01770159  RH  089%=      5-min Rain = 0
KAD1 201107Z 19014KT 18/16 A2987 RMK A01 T01770159  RH  089%=      5-min Rain = 0
KAD1 201108Z 19013KT 18/16 A2987 RMK A01 T01770159  RH  089%=      5-min Rain = 0
KAD1 201109Z 19013KT 18/16 A2987 RMK A01 T01770158  RH  089%=      5-min Rain = 0
KAD1 201110Z 19014KT 18/16 A2987 RMK A01 T01770158  RH  089%=      5-min Rain = 0
KAD1 201111Z 18014KT 18/16 A2987 RMK A01 T01770158  RH  089%=      5-min Rain = 0
KAD1 201112Z 19014KT 18/16 A2988 RMK A01 T01770158  RH  089%=      5-min Rain = 0
KAD1 201113Z 18014KT 18/16 A2988 RMK A01 T01770158  RH  089%=      5-min Rain = 0
KAD1 201114Z 19014KT 18/16 A2988 RMK A01 T01760157  RH  089%=      5-min Rain = 0
KAD1 201115Z 18013KT 18/16 A2988 RMK A01 T01760157  RH  089%=      5-min Rain = 0
KAD1 201116Z 18014KT 18/16 A2988 RMK A01 T01760157  RH  089%=      5-min Rain = 0
KAD1 201117Z 19013KT 18/16 A2988 RMK A01 T01760157  RH  089%=      5-min Rain = 0
KAD1 201118Z 19013KT 18/16 A2988 RMK A01 T01760156  RH  089%=      5-min Rain = 0
KAD1 201119Z 19014KT 18/16 A2988 RMK A01 T01750156  RH  088%=      5-min Rain = 0
KAD1 201120Z 19014KT 18/16 A2987 RMK A01 T01750156  RH  088%=      5-min Rain = 0
KAD1 201121Z 19014KT 18/16 A2987 RMK A01 T01750155  RH  088%=      5-min Rain = 0
KAD1 201122Z 19014KT 18/16 A2987 RMK A01 T01750155  RH  088%=      5-min Rain = 0
KAD1 201123Z 19014KT 18/16 A2987 RMK A01 T01750155  RH  088%=      5-min Rain = 0
KAD1 201124Z 19014KT 18/15 A2987 RMK A01 T01750154  RH  088%=      5-min Rain = 0
KAD1 201125Z 19013KT 17/15 A2988 RMK A01 T01740154  RH  088%=      5-min Rain = 0
KAD1 201126Z 19014KT 17/15 A2988 RMK A01 T01740154  RH  088%=      5-min Rain = 0
KAD1 201127Z 19013KT 17/15 A2988 RMK A01 T01740153  RH  088%=      5-min Rain = 0
KAD1 201128Z 19013KT 17/15 A2988 RMK A01 T01730153  RH  088%=      5-min Rain = 0
KAD1 201129Z 19014KT 17/15 A2988 RMK A01 T01740153  RH  088%=      5-min Rain = 0
KAD1 201130Z 19013KT 17/15 A2988 RMK A01 T01730153  RH  088%=      5-min Rain = 0
KAD1 201131Z 19013KT 17/15 A2988 RMK A01 T01730152  RH  088%=      5-min Rain = 0
KAD1 201132Z 19013KT 17/15 A2988 RMK A01 T01730153  RH  088%=      5-min Rain = 0
KAD1 201133Z 19013KT 17/15 A2988 RMK A01 T01720152  RH  088%=      5-min Rain = 0
KAD1 201134Z 19012KT 17/15 A2988 RMK A01 T01710152  RH  088%=      5-min Rain = 0
KAD1 201135Z 19012KT 17/15 A2988 RMK A01 T01700151  RH  089%=      5-min Rain = 0
KAD1 201136Z 19013KT 17/15 A2988 RMK A01 T01700151  RH  089%=      5-min Rain = 0
KAD1 201137Z 19012KT 17/15 A2988 RMK A01 T01700151  RH  089%=      5-min Rain = 0
KAD1 201138Z 19012KT 17/15 A2988 RMK A01 T01700151  RH  089%=      5-min Rain = 0
KAD1 201139Z 19012KT 17/15 A2988 RMK A01 T01700151  RH  089%=      5-min Rain = 0
KAD1 201140Z 19012KT 17/15 A2988 RMK A01 T01690151  RH  089%=      5-min Rain = 0
KAD1 201141Z 19012KT 17/15 A2988 RMK A01 T01690151  RH  089%=      5-min Rain = 0
KAD1 201142Z 19013KT 17/15 A2988 RMK A01 T01690150  RH  089%=      5-min Rain = 0
KAD1 201143Z 20012KT 17/15 A2988 RMK A01 T01690150  RH  089%=      5-min Rain = 0
KAD1 201144Z 19013KT 17/15 A2988 RMK A01 T01690150  RH  089%=      5-min Rain = 0
KAD1 201145Z 19012KT 17/15 A2988 RMK A01 T01690150  RH  089%=      5-min Rain = 0
KAD1 201146Z 20013KT 17/15 A2988 RMK A01 T01690150  RH  089%=      5-min Rain = 0
KAD1 201147Z 20013KT 17/15 A2988 RMK A01 T01680149  RH  088%=      5-min Rain = 0
KAD1 201148Z 20013KT 17/15 A2988 RMK A01 T01680149  RH  088%=      5-min Rain = 0
KAD1 201149Z 20013KT 17/15 A2988 RMK A01 T01690149  RH  088%=      5-min Rain = 0
KAD1 201150Z 20014KT 17/15 A2988 RMK A01 T01680148  RH  088%=      5-min Rain = 0
KAD1 201151Z 20014KT 17/15 A2988 RMK A01 T01700148  RH  087%=      5-min Rain = 0
KAD1 201152Z 21014KT 17/15 A2988 RMK A01 T01700147  RH  086%=      5-min Rain = 0
KAD1 201153Z 20013KT 17/15 A2988 RMK A01 T01710147  RH  085%=      5-min Rain = 0
KAD1 201154Z 21014KT 17/15 A2988 RMK A01 T01720147  RH  085%=      5-min Rain = 0
KAD1 201155Z 21013KT 17/15 A2988 RMK A01 T01730146  RH  084%=      5-min Rain = 0
KAD1 201156Z 21011KT 17/15 A2988 RMK A01 T01740146  RH  084%=      5-min Rain = 0
KAD1 201157Z 21012KT 17/15 A2988 RMK A01 T01730146  RH  084%=      5-min Rain = 0
KAD1 201158Z 21011KT 17/15 A2988 RMK A01 T01730146  RH  084%=      5-min Rain = 0
KAD1 201159Z 21011KT 17/15 A2988 RMK A01 T01730145  RH  084%=      5-min Rain = 0
KAD1 201200Z 21011KT 17/14 A2988 RMK A01 T01720144  RH  084%=      5-min Rain = 0
KAD1 201201Z 22012KT 17/14 A2988 RMK A01 T01720144  RH  084%=      5-min Rain = 0
KAD1 201202Z 22011KT 17/14 A2988 RMK A01 T01720143  RH  083%=      5-min Rain = 0
KAD1 201203Z 22010KT 17/14 A2988 RMK A01 T01720143  RH  083%=      5-min Rain = 0
KAD1 201204Z 22010KT 17/14 A2988 RMK A01 T01720142  RH  083%=      5-min Rain = 0
KAD1 201205Z 22011KT 17/14 A2988 RMK A01 T01720142  RH  083%=      5-min Rain = 0
KAD1 201206Z 22011KT 17/14 A2988 RMK A01 T01720142  RH  083%=      5-min Rain = 0
KAD1 201207Z 22011KT 17/14 A2988 RMK A01 T01710141  RH  082%=      5-min Rain = 0
KAD1 201208Z 22012KT 17/14 A2988 RMK A01 T01710141  RH  082%=      5-min Rain = 0
KAD1 201209Z 21012KT 17/14 A2988 RMK A01 T01710140  RH  082%=      5-min Rain = 0
KAD1 201210Z 21011KT 17/14 A2988 RMK A01 T01720140  RH  081%=      5-min Rain = 0
KAD1 201211Z 22011KT 17/14 A2988 RMK A01 T01720140  RH  081%=      5-min Rain = 0
KAD1 201212Z 22010KT 17/14 A2988 RMK A01 T01730139  RH  081%=      5-min Rain = 0
KAD1 201213Z 21011KT 17/14 A2988 RMK A01 T01730139  RH  081%=      5-min Rain = 0
KAD1 201214Z 21011KT 17/14 A2989 RMK A01 T01730139  RH  081%=      5-min Rain = 0
KAD1 201215Z 21012KT 17/14 A2989 RMK A01 T01730139  RH  081%=      5-min Rain = 0
KAD1 201216Z 22012KT 17/14 A2989 RMK A01 T01730139  RH  081%=      5-min Rain = 0
KAD1 201217Z 22012KT 17/14 A2989 RMK A01 T01730139  RH  080%=      5-min Rain = 0
KAD1 201218Z 22011KT 17/14 A2989 RMK A01 T01740139  RH  080%=      5-min Rain = 0
KAD1 201219Z 22011KT 17/14 A2989 RMK A01 T01730138  RH  080%=      5-min Rain = 0
KAD1 201220Z 22011KT 17/14 A2989 RMK A01 T01740138  RH  079%=      5-min Rain = 0
KAD1 201221Z 22011KT 18/14 A2989 RMK A01 T01750138  RH  079%=      5-min Rain = 0
KAD1 201222Z 22011KT 18/14 A2989 RMK A01 T01750137  RH  078%=      5-min Rain = 0
KAD1 201223Z 22011KT 18/14 A2989 RMK A01 T01760137  RH  078%=      5-min Rain = 0
KAD1 201224Z 22011KT 18/14 A2989 RMK A01 T01770138  RH  078%=      5-min Rain = 0
KAD1 201225Z 22011KT 18/14 A2989 RMK A01 T01770137  RH  078%=      5-min Rain = 0
KAD1 201226Z 22011KT 18/14 A2989 RMK A01 T01770137  RH  077%=      5-min Rain = 0
KAD1 201227Z 22011KT 18/14 A2989 RMK A01 T01770137  RH  077%=      5-min Rain = 0
KAD1 201228Z 22010KT 18/14 A2989 RMK A01 T01770137  RH  077%=      5-min Rain = 0
KAD1 201229Z 22011KT 18/14 A2989 RMK A01 T01780138  RH  077%=      5-min Rain = 0
KAD1 201230Z 22011KT 18/14 A2989 RMK A01 T01780138  RH  077%=      5-min Rain = 0
KAD1 201231Z 22012KT 18/14 A2989 RMK A01 T01780137  RH  077%=      5-min Rain = 0
KAD1 201232Z 23012KT 18/14 A2989 RMK A01 T01780136  RH  076%=      5-min Rain = 0
KAD1 201233Z 23012KT 18/14 A2989 RMK A01 T01790135  RH  075%=      5-min Rain = 0
KAD1 201234Z 23011KT 18/13 A2989 RMK A01 T01810134  RH  074%=      5-min Rain = 0
KAD1 201235Z 23011KT 18/13 A2989 RMK A01 T01820134  RH  073%=      5-min Rain = 0
KAD1 201236Z 24011KT 18/13 A2989 RMK A01 T01830134  RH  073%=      5-min Rain = 0
KAD1 201237Z 24010KT 18/14 A2989 RMK A01 T01830135  RH  073%=      5-min Rain = 0
KAD1 201238Z 24010KT 18/14 A2989 RMK A01 T01840135  RH  073%=      5-min Rain = 0
KAD1 201239Z 24011KT 18/13 A2989 RMK A01 T01840134  RH  073%=      5-min Rain = 0
KAD1 201240Z 24011KT 18/13 A2989 RMK A01 T01840134  RH  072%=      5-min Rain = 0
KAD1 201241Z 24011KT 19/13 A2989 RMK A01 T01850134  RH  072%=      5-min Rain = 0
KAD1 201242Z 24011KT 19/13 A2989 RMK A01 T01860134  RH  072%=      5-min Rain = 0
KAD1 201243Z 24010KT 19/13 A2989 RMK A01 T01870134  RH  071%=      5-min Rain = 0
KAD1 201244Z 24010KT 19/14 A2989 RMK A01 T01870135  RH  071%=      5-min Rain = 0
KAD1 201245Z 24011KT 19/13 A2989 RMK A01 T01880133  RH  070%=      5-min Rain = 0
KAD1 201246Z 24010KT 19/13 A2989 RMK A01 T01890132  RH  069%=      5-min Rain = 0
KAD1 201247Z 25009KT 19/13 A2989 RMK A01 T01910131  RH  068%=      5-min Rain = 0
KAD1 201248Z 25010KT 19/13 A2989 RMK A01 T01930127  RH  066%=      5-min Rain = 0
KAD1 201249Z 25010KT 20/13 A2989 RMK A01 T01950127  RH  065%=      5-min Rain = 0
KAD1 201250Z 25010KT 20/13 A2989 RMK A01 T01960127  RH  064%=      5-min Rain = 0
KAD1 201251Z 25010KT 20/13 A2989 RMK A01 T01980125  RH  063%=      5-min Rain = 0
KAD1 201252Z 25011KT 20/12 A2989 RMK A01 T01990122  RH  061%=      5-min Rain = 0
KAD1 201253Z 25011KT 20/12 A2989 RMK A01 T02000120  RH  060%=      5-min Rain = 0
KAD1 201254Z 25010KT 20/12 A2989 RMK A01 T02020119  RH  059%=      5-min Rain = 0
KAD1 201255Z 24011KT 20/12 A2989 RMK A01 T02020120  RH  059%=      5-min Rain = 0
KAD1 201256Z 25010KT 20/12 A299 RMK A01 T02030119  RH  058%=      5-min Rain = 0
KAD1 201257Z 25010KT 20/12 A299 RMK A01 T02030119  RH  058%=      5-min Rain = 0
KAD1 201258Z 25009KT 20/12 A299 RMK A01 T02040119  RH  058%=      5-min Rain = 0
KAD1 201259Z 25010KT 20/12 A299 RMK A01 T02040118  RH  058%=      5-min Rain = 0
KAD1 201300Z 25010KT 21/12 A299 RMK A01 T02050115  RH  056%=      5-min Rain = 0
KAD1 201301Z 25009KT 21/12 A299 RMK A01 T02060115  RH  056%=      5-min Rain = 0
KAD1 201302Z 25008KT 21/12 A299 RMK A01 T02060116  RH  056%=      5-min Rain = 0
KAD1 201303Z 24009KT 21/12 A299 RMK A01 T02060117  RH  057%=      5-min Rain = 0
KAD1 201304Z 25011KT 21/12 A299 RMK A01 T02060116  RH  056%=      5-min Rain = 0
KAD1 201305Z 25009KT 21/12 A299 RMK A01 T02070115  RH  056%=      5-min Rain = 0
KAD1 201306Z 25009KT 21/12 A299 RMK A01 T02070117  RH  056%=      5-min Rain = 0
KAD1 201307Z 25009KT 21/12 A299 RMK A01 T02070116  RH  056%=      5-min Rain = 0
KAD1 201308Z 25010KT 21/12 A299 RMK A01 T02080117  RH  056%=      5-min Rain = 0
KAD1 201309Z 25008KT 21/12 A299 RMK A01 T02080118  RH  056%=      5-min Rain = 0
KAD1 201310Z 25008KT 21/12 A299 RMK A01 T02080117  RH  056%=      5-min Rain = 0
KAD1 201311Z 25009KT 21/12 A299 RMK A01 T02090116  RH  055%=      5-min Rain = 0
KAD1 201312Z 25009KT 21/12 A299 RMK A01 T02100116  RH  055%=      5-min Rain = 0
KAD1 201313Z 25010KT 21/12 A299 RMK A01 T02100117  RH  055%=      5-min Rain = 0
KAD1 201314Z 24010KT 21/11 A299 RMK A01 T02100114  RH  054%=      5-min Rain = 0
KAD1 201315Z 25009KT 21/12 A299 RMK A01 T02110117  RH  055%=      5-min Rain = 0
KAD1 201316Z 25010KT 21/12 A299 RMK A01 T02110118  RH  055%=      5-min Rain = 0
KAD1 201317Z 25009KT 21/12 A299 RMK A01 T02120118  RH  055%=      5-min Rain = 0
KAD1 201318Z 26009KT 21/12 A299 RMK A01 T02120119  RH  055%=      5-min Rain = 0
KAD1 201319Z 26009KT 21/12 A299 RMK A01 T02120117  RH  054%=      5-min Rain = 0
KAD1 201320Z 25009KT 21/12 A299 RMK A01 T02130118  RH  055%=      5-min Rain = 0
KAD1 201321Z 25009KT 21/12 A299 RMK A01 T02140116  RH  054%=      5-min Rain = 0
KAD1 201322Z 26009KT 21/11 A299 RMK A01 T02140113  RH  052%=      5-min Rain = 0
KAD1 201323Z 26008KT 22/12 A299 RMK A01 T02150116  RH  053%=      5-min Rain = 0
KAD1 201324Z 25008KT 22/12 A299 RMK A01 T02150118  RH  054%=      5-min Rain = 0
KAD1 201325Z 25008KT 22/11 A299 RMK A01 T02160114  RH  052%=      5-min Rain = 0
KAD1 201326Z 25009KT 22/12 A299 RMK A01 T02160115  RH  052%=      5-min Rain = 0
KAD1 201327Z 26010KT 22/11 A299 RMK A01 T02160112  RH  051%=      5-min Rain = 0
KAD1 201328Z 26009KT 22/11 A2991 RMK A01 T02170113  RH  052%=      5-min Rain = 0
KAD1 201329Z 26009KT 22/11 A2991 RMK A01 T02170114  RH  052%=      5-min Rain = 0
KAD1 201330Z 26009KT 22/12 A2991 RMK A01 T02180118  RH  053%=      5-min Rain = 0
KAD1 201331Z 26009KT 22/11 A2991 RMK A01 T02190113  RH  051%=      5-min Rain = 0
KAD1 201332Z 26008KT 22/12 A2991 RMK A01 T02190116  RH  052%=      5-min Rain = 0
KAD1 201333Z 26009KT 22/11 A2991 RMK A01 T02190114  RH  051%=      5-min Rain = 0
KAD1 201334Z 27008KT 22/12 A2991 RMK A01 T02190116  RH  052%=      5-min Rain = 0
KAD1 201335Z 27010KT 22/12 A2991 RMK A01 T02200116  RH  052%=      5-min Rain = 0
KAD1 201336Z 27009KT 22/11 A2991 RMK A01 T02200113  RH  050%=      5-min Rain = 0
KAD1 201337Z 26009KT 22/11 A2991 RMK A01 T02200113  RH  051%=      5-min Rain = 0
KAD1 201338Z 26009KT 22/11 A2991 RMK A01 T02210112  RH  050%=      5-min Rain = 0
KAD1 201339Z 27008KT 22/12 A2991 RMK A01 T02210117  RH  052%=      5-min Rain = 0
KAD1 201340Z 27009KT 22/11 A2991 RMK A01 T02210113  RH  050%=      5-min Rain = 0
KAD1 201341Z 27009KT 22/11 A2991 RMK A01 T02210112  RH  050%=      5-min Rain = 0
KAD1 201342Z 27010KT 22/11 A2991 RMK A01 T02220111  RH  049%=      5-min Rain = 0
KAD1 201343Z 28009KT 22/11 A2991 RMK A01 T02220113  RH  050%=      5-min Rain = 0
KAD1 201344Z 27009KT 22/12 A2991 RMK A01 T02220116  RH  051%=      5-min Rain = 0
KAD1 201345Z 26009KT 22/12 A2991 RMK A01 T02220116  RH  051%=      5-min Rain = 0
KAD1 201346Z 26008KT 22/11 A2991 RMK A01 T02220112  RH  050%=      5-min Rain = 0
KAD1 201347Z 26009KT 22/11 A2991 RMK A01 T02220112  RH  050%=      5-min Rain = 0
KAD1 201348Z 26008KT 22/11 A2991 RMK A01 T02220111  RH  049%=      5-min Rain = 0
KAD1 201349Z 27009KT 22/11 A2991 RMK A01 T02230109  RH  049%=      5-min Rain = 0
KAD1 201350Z 27007KT 22/11 A2991 RMK A01 T02240107  RH  048%=      5-min Rain = 0
KAD1 201351Z 27007KT 22/11 A2991 RMK A01 T02240107  RH  047%=      5-min Rain = 0
KAD1 201352Z 28007KT 23/12 A2991 RMK A01 T02260115  RH  049%=      5-min Rain = 0
KAD1 201353Z 27007KT 23/11 A2991 RMK A01 T02270113  RH  048%=      5-min Rain = 0
KAD1 201354Z 26008KT 23/11 A2991 RMK A01 T02280109  RH  047%=      5-min Rain = 0
KAD1 201355Z 26009KT 23/11 A2991 RMK A01 T02280111  RH  048%=      5-min Rain = 0
KAD1 201356Z 26008KT 23/11 A2991 RMK A01 T02270108  RH  047%=      5-min Rain = 0
KAD1 201357Z 27008KT 23/11 A2991 RMK A01 T02270108  RH  047%=      5-min Rain = 0
KAD1 201358Z 26009KT 23/11 A2991 RMK A01 T02270112  RH  048%=      5-min Rain = 0
KAD1 201359Z 26007KT 23/11 A2991 RMK A01 T02270111  RH  048%=      5-min Rain = 0
KAD1 201400Z 27006KT 23/11 A2991 RMK A01 T02270113  RH  048%=      5-min Rain = 0
KAD1 201401Z 27007KT 23/12 A2991 RMK A01 T02280117  RH  049%=      5-min Rain = 0
KAD1 201402Z 27009KT 23/11 A2991 RMK A01 T02290110  RH  047%=      5-min Rain = 0
KAD1 201403Z 27009KT 23/11 A2991 RMK A01 T02290105  RH  045%=      5-min Rain = 0
KAD1 201404Z 27009KT 23/10 A2991 RMK A01 T02300103  RH  045%=      5-min Rain = 0
KAD1 201405Z 27006KT 23/11 A2991 RMK A01 T02300110  RH  047%=      5-min Rain = 0
KAD1 201406Z 26008KT 23/11 A2991 RMK A01 T02300112  RH  047%=      5-min Rain = 0
KAD1 201407Z 26009KT 23/11 A2991 RMK A01 T02310109  RH  046%=      5-min Rain = 0
KAD1 201408Z 26008KT 23/11 A2991 RMK A01 T02310111  RH  047%=      5-min Rain = 0
KAD1 201409Z 26009KT 23/11 A2991 RMK A01 T02310112  RH  047%=      5-min Rain = 0
KAD1 201410Z 26007KT 23/12 A2991 RMK A01 T02310115  RH  048%=      5-min Rain = 0
KAD1 201411Z 26009KT 23/11 A2991 RMK A01 T02320113  RH  047%=      5-min Rain = 0
KAD1 201412Z 26010KT 23/11 A2991 RMK A01 T02320106  RH  045%=      5-min Rain = 0
KAD1 201413Z 26010KT 23/10 A2991 RMK A01 T02320103  RH  044%=      5-min Rain = 0
KAD1 201414Z 25010KT 23/10 A2991 RMK A01 T02320102  RH  044%=      5-min Rain = 0
KAD1 201415Z 26010KT 23/11 A2991 RMK A01 T02320107  RH  045%=      5-min Rain = 0
KAD1 201416Z 25010KT 23/11 A2991 RMK A01 T02340107  RH  045%=      5-min Rain = 0
KAD1 201417Z 26010KT 24/11 A2991 RMK A01 T02360106  RH  044%=      5-min Rain = 0
KAD1 201418Z 26010KT 24/10 A2992 RMK A01 T02370103  RH  043%=      5-min Rain = 0
KAD1 201419Z 26012KT 24/10 A2992 RMK A01 T02380103  RH  042%=      5-min Rain = 0
KAD1 201420Z 26010KT 24/11 A2992 RMK A01 T02390107  RH  043%=      5-min Rain = 0
KAD1 201421Z 26012KT 24/10 A2992 RMK A01 T02390103  RH  042%=      5-min Rain = 0
KAD1 201422Z 25013KT 24/10 A2991 RMK A01 T02390102  RH  042%=      5-min Rain = 0
KAD1 201423Z 25012KT 24/11 A2991 RMK A01 T02380105  RH  043%=      5-min Rain = 0
KAD1 201424Z 26010KT 24/10 A2991 RMK A01 T02370103  RH  042%=      5-min Rain = 0
KAD1 201425Z 26013KT 24/11 A2992 RMK A01 T02370105  RH  043%=      5-min Rain = 0
KAD1 201426Z 26011KT 24/10 A2992 RMK A01 T02380103  RH  043%=      5-min Rain = 0
KAD1 201427Z 26012KT 24/10 A2991 RMK A01 T02380103  RH  043%=      5-min Rain = 0
KAD1 201428Z 26013KT 24/10 A2991 RMK A01 T02380100  RH  042%=      5-min Rain = 0
KAD1 201429Z 26013KT 24/10 A2992 RMK A01 T02380102  RH  042%=      5-min Rain = 0
KAD1 201430Z 26013KT 24/10 A2992 RMK A01 T02390099  RH  041%=      5-min Rain = 0
KAD1 201431Z 26013KT 24/10 A2992 RMK A01 T02380100  RH  042%=      5-min Rain = 0
KAD1 201432Z 26012KT 24/10 A2992 RMK A01 T02380100  RH  041%=      5-min Rain = 0
KAD1 201433Z 26012KT 24/10 A2992 RMK A01 T02390101  RH  042%=      5-min Rain = 0
KAD1 201434Z 26012KT 24/10 A2992 RMK A01 T02390104  RH  042%=      5-min Rain = 0
KAD1 201435Z 26014KT 24/10 A2992 RMK A01 T02400103  RH  042%=      5-min Rain = 0
KAD1 201436Z 27013KT 24/10 A2992 RMK A01 T02400104  RH  042%=      5-min Rain = 0
KAD1 201437Z 26012KT 24/11 A2992 RMK A01 T02400105  RH  043%=      5-min Rain = 0
KAD1 201438Z 26011KT 24/11 A2992 RMK A01 T02400109  RH  044%=      5-min Rain = 0
KAD1 201439Z 26013KT 24/11 A2992 RMK A01 T02420109  RH  043%=      5-min Rain = 0
KAD1 201440Z 26012KT 24/11 A2992 RMK A01 T02430107  RH  042%=      5-min Rain = 0
KAD1 201441Z 25012KT 24/11 A2992 RMK A01 T02440108  RH  042%=      5-min Rain = 0
KAD1 201442Z 26010KT 24/11 A2992 RMK A01 T02440113  RH  044%=      5-min Rain = 0
KAD1 201443Z 26012KT 25/11 A2992 RMK A01 T02450107  RH  042%=      5-min Rain = 0
KAD1 201444Z 26009KT 25/11 A2992 RMK A01 T02470109  RH  042%=      5-min Rain = 0
KAD1 201445Z 26010KT 25/11 A2992 RMK A01 T02470109  RH  042%=      5-min Rain = 0
KAD1 201446Z 26009KT 25/12 A2992 RMK A01 T02480115  RH  043%=      5-min Rain = 0
KAD1 201447Z 25013KT 25/11 A2992 RMK A01 T02490111  RH  042%=      5-min Rain = 0
KAD1 201448Z 25013KT 25/11 A2992 RMK A01 T02490109  RH  041%=      5-min Rain = 0
KAD1 201449Z 26013KT 25/11 A2992 RMK A01 T02470107  RH  041%=      5-min Rain = 0
KAD1 201450Z 26012KT 25/11 A2992 RMK A01 T02470106  RH  041%=      5-min Rain = 0
KAD1 201451Z 26012KT 25/11 A2992 RMK A01 T02470106  RH  041%=      5-min Rain = 0
KAD1 201452Z 26010KT 25/11 A2992 RMK A01 T02470107  RH  042%=      5-min Rain = 0
KAD1 201453Z 26010KT 25/11 A2992 RMK A01 T02470113  RH  043%=      5-min Rain = 0
KAD1 201454Z 26011KT 25/11 A2992 RMK A01 T02480112  RH  042%=      5-min Rain = 0
KAD1 201455Z 26010KT 25/11 A2992 RMK A01 T02490113  RH  043%=      5-min Rain = 0
KAD1 201456Z 25009KT 25/11 A2992 RMK A01 T02500112  RH  042%=      5-min Rain = 0
KAD1 201457Z 25010KT 25/11 A2992 RMK A01 T02510113  RH  042%=      5-min Rain = 0
KAD1 201458Z 26012KT 25/11 A2992 RMK A01 T02520105  RH  040%=      5-min Rain = 0
KAD1 201459Z 26011KT 25/11 A2992 RMK A01 T02540106  RH  039%=      5-min Rain = 0
KAD1 201500Z 26011KT 25/11 A2992 RMK A01 T02540105  RH  039%=      5-min Rain = 0
KAD1 201501Z 27009KT 25/11 A2992 RMK A01 T02540107  RH  039%=      5-min Rain = 0
KAD1 201502Z 26009KT 26/11 A2992 RMK A01 T02550112  RH  041%=      5-min Rain = 0
KAD1 201503Z 26010KT 26/11 A2992 RMK A01 T02570112  RH  040%=      5-min Rain = 0
KAD1 201504Z 26010KT 26/11 A2992 RMK A01 T02580114  RH  041%=      5-min Rain = 0
KAD1 201505Z 26011KT 26/11 A2992 RMK A01 T02590106  RH  038%=      5-min Rain = 0
KAD1 201506Z 26011KT 26/11 A2992 RMK A01 T02600107  RH  038%=      5-min Rain = 0
KAD1 201507Z 26011KT 26/11 A2992 RMK A01 T02600107  RH  038%=      5-min Rain = 0
KAD1 201508Z 27008KT 26/11 A2992 RMK A01 T02600111  RH  039%=      5-min Rain = 0
KAD1 201509Z 26011KT 26/11 A2992 RMK A01 T02620108  RH  038%=      5-min Rain = 0
KAD1 201510Z 26011KT 26/11 A2992 RMK A01 T02620108  RH  038%=      5-min Rain = 0
KAD1 201511Z 27009KT 26/11 A2992 RMK A01 T02620107  RH  038%=      5-min Rain = 0
KAD1 201512Z 27009KT 26/11 A2992 RMK A01 T02620111  RH  039%=      5-min Rain = 0
KAD1 201513Z 27010KT 26/11 A2992 RMK A01 T02620109  RH  038%=      5-min Rain = 0
KAD1 201514Z 27011KT 26/10 A2992 RMK A01 T02620098  RH  036%=      5-min Rain = 0
KAD1 201515Z 27010KT 26/10 A2992 RMK A01 T02620100  RH  036%=      5-min Rain = 0
KAD1 201516Z 27011KT 26/10 A2991 RMK A01 T02620100  RH  036%=      5-min Rain = 0
KAD1 201517Z 27009KT 26/10 A2991 RMK A01 T02630101  RH  036%=      5-min Rain = 0
KAD1 201518Z 28010KT 26/11 A2991 RMK A01 T02640105  RH  037%=      5-min Rain = 0
KAD1 201519Z 28010KT 27/10 A2991 RMK A01 T02650102  RH  036%=      5-min Rain = 0
KAD1 201520Z 28010KT 27/10 A2991 RMK A01 T02650099  RH  035%=      5-min Rain = 0
KAD1 201521Z 27011KT 26/10 A2991 RMK A01 T02640100  RH  036%=      5-min Rain = 0
KAD1 201522Z 27011KT 26/10 A2991 RMK A01 T02640097  RH  035%=      5-min Rain = 0
KAD1 201523Z 28011KT 26/09 A2991 RMK A01 T02640094  RH  034%=      5-min Rain = 0
KAD1 201524Z 27010KT 26/10 A2991 RMK A01 T02640099  RH  035%=      5-min Rain = 0
KAD1 201525Z 26009KT 27/11 A2991 RMK A01 T02650108  RH  037%=      5-min Rain = 0
KAD1 201526Z 26010KT 27/11 A2991 RMK A01 T02670109  RH  037%=      5-min Rain = 0
KAD1 201527Z 26009KT 27/11 A2991 RMK A01 T02680109  RH  037%=      5-min Rain = 0
KAD1 201528Z 27009KT 27/11 A2991 RMK A01 T02680106  RH  036%=      5-min Rain = 0
KAD1 201529Z 26012KT 27/10 A2991 RMK A01 T02680103  RH  035%=      5-min Rain = 0
KAD1 201530Z 27012KT 27/10 A2991 RMK A01 T02680102  RH  035%=      5-min Rain = 0
KAD1 201531Z 26012KT 27/10 A2991 RMK A01 T02680102  RH  035%=      5-min Rain = 0
KAD1 201532Z 26010KT 27/11 A2991 RMK A01 T02680113  RH  038%=      5-min Rain = 0
KAD1 201533Z 27012KT 27/11 A2991 RMK A01 T02670106  RH  036%=      5-min Rain = 0
KAD1 201534Z 27011KT 27/11 A2991 RMK A01 T02680107  RH  036%=      5-min Rain = 0
KAD1 201535Z 27011KT 27/10 A2991 RMK A01 T02690103  RH  035%=      5-min Rain = 0
KAD1 201536Z 26010KT 27/10 A2991 RMK A01 T02690104  RH  036%=      5-min Rain = 0
KAD1 201537Z 27012KT 27/10 A2991 RMK A01 T02680099  RH  035%=      5-min Rain = 0
KAD1 201538Z 27010KT 27/10 A2991 RMK A01 T02680100  RH  035%=      5-min Rain = 0
KAD1 201539Z 27010KT 27/11 A2991 RMK A01 T02680105  RH  036%=      5-min Rain = 0
KAD1 201540Z 28010KT 27/11 A2991 RMK A01 T02690106  RH  036%=      5-min Rain = 0
KAD1 201541Z 27012KT 27/10 A2991 RMK A01 T02700100  RH  034%=      5-min Rain = 0
KAD1 201542Z 27011KT 27/10 A2991 RMK A01 T02700095  RH  033%=      5-min Rain = 0
KAD1 201543Z 28012KT 27/10 A2991 RMK A01 T02690096  RH  034%=      5-min Rain = 0
KAD1 201544Z 28012KT 27/09 A2991 RMK A01 T02700091  RH  032%=      5-min Rain = 0
KAD1 201545Z 27011KT 27/09 A2991 RMK A01 T02700093  RH  033%=      5-min Rain = 0
KAD1 201546Z 28009KT 27/10 A2991 RMK A01 T02710099  RH  034%=      5-min Rain = 0
KAD1 201547Z 27011KT 27/10 A2991 RMK A01 T02720099  RH  034%=      5-min Rain = 0
KAD1 201548Z 27010KT 27/10 A2991 RMK A01 T02720097  RH  033%=      5-min Rain = 0
KAD1 201549Z 27010KT 27/10 A2991 RMK A01 T02710095  RH  033%=      5-min Rain = 0
KAD1 201550Z 28008KT 27/10 A2991 RMK A01 T02720098  RH  034%=      5-min Rain = 0
KAD1 201551Z 28010KT 27/10 A2991 RMK A01 T02730098  RH  033%=      5-min Rain = 0
KAD1 201552Z 27011KT 28/09 A299 RMK A01 T02750094  RH  032%=      5-min Rain = 0
KAD1 201553Z 27012KT 28/09 A299 RMK A01 T02760090  RH  031%=      5-min Rain = 0
KAD1 201554Z 27012KT 28/09 A299 RMK A01 T02760090  RH  031%=      5-min Rain = 0
KAD1 201555Z 28012KT 28/09 A299 RMK A01 T02760092  RH  031%=      5-min Rain = 0
KAD1 201556Z 27013KT 28/09 A299 RMK A01 T02770090  RH  031%=      5-min Rain = 0
KAD1 201557Z 28013KT 28/09 A299 RMK A01 T02770092  RH  031%=      5-min Rain = 0
KAD1 201558Z 28012KT 28/09 A299 RMK A01 T02780093  RH  031%=      5-min Rain = 0
KAD1 201559Z 27011KT 28/09 A299 RMK A01 T02770091  RH  031%=      5-min Rain = 0
KAD1 201600Z 27008KT 28/10 A299 RMK A01 T02770102  RH  034%=      5-min Rain = 0
KAD1 201601Z 28009KT 28/10 A299 RMK A01 T02780101  RH  033%=      5-min Rain = 0
KAD1 201602Z 28008KT 28/10 A299 RMK A01 T02780102  RH  033%=      5-min Rain = 0
KAD1 201603Z 28010KT 28/10 A299 RMK A01 T02790097  RH  032%=      5-min Rain = 0
KAD1 201604Z 27009KT 28/10 A299 RMK A01 T02800098  RH  032%=      5-min Rain = 0
KAD1 201605Z 27008KT 28/10 A299 RMK A01 T02800097  RH  032%=      5-min Rain = 0
KAD1 201606Z 27009KT 28/09 A299 RMK A01 T02800093  RH  031%=      5-min Rain = 0
KAD1 201607Z 27011KT 28/09 A299 RMK A01 T02800090  RH  030%=      5-min Rain = 0
KAD1 201608Z 26010KT 28/09 A299 RMK A01 T02800088  RH  030%=      5-min Rain = 0
KAD1 201609Z 26012KT 28/09 A299 RMK A01 T02790090  RH  030%=      5-min Rain = 0
KAD1 201610Z 27012KT 28/09 A299 RMK A01 T02800092  RH  031%=      5-min Rain = 0
KAD1 201611Z 27011KT 28/09 A299 RMK A01 T02810094  RH  031%=      5-min Rain = 0
KAD1 201612Z 27012KT 28/09 A299 RMK A01 T02810088  RH  030%=      5-min Rain = 0
KAD1 201613Z 27012KT 28/09 A299 RMK A01 T02810087  RH  029%=      5-min Rain = 0
KAD1 201614Z 27011KT 28/09 A299 RMK A01 T02810093  RH  031%=      5-min Rain = 0
KAD1 201615Z 27010KT 28/09 A299 RMK A01 T02820094  RH  031%=      5-min Rain = 0
KAD1 201616Z 26013KT 28/09 A299 RMK A01 T02830090  RH  030%=      5-min Rain = 0
KAD1 201617Z 27011KT 28/09 A299 RMK A01 T02830087  RH  029%=      5-min Rain = 0
KAD1 201618Z 26010KT 28/09 A299 RMK A01 T02840089  RH  029%=      5-min Rain = 0
KAD1 201619Z 26011KT 29/09 A299 RMK A01 T02850089  RH  029%=      5-min Rain = 0
KAD1 201620Z 27009KT 29/09 A299 RMK A01 T02850090  RH  029%=      5-min Rain = 0
KAD1 201621Z 26010KT 29/10 A299 RMK A01 T02860096  RH  030%=      5-min Rain = 0
KAD1 201622Z 26012KT 29/10 A299 RMK A01 T02880097  RH  030%=      5-min Rain = 0
KAD1 201623Z 26012KT 29/09 A299 RMK A01 T02890091  RH  029%=      5-min Rain = 0
KAD1 201624Z 26009KT 29/10 A299 RMK A01 T02880101  RH  031%=      5-min Rain = 0
KAD1 201625Z 27009KT 29/11 A299 RMK A01 T02890108  RH  032%=      5-min Rain = 0
KAD1 201626Z 26012KT 29/10 A299 RMK A01 T02910100  RH  031%=      5-min Rain = 0
KAD1 201627Z 27010KT 29/09 A299 RMK A01 T02920092  RH  029%=      5-min Rain = 0
KAD1 201628Z 27012KT 29/09 A299 RMK A01 T02910087  RH  028%=      5-min Rain = 0
KAD1 201629Z 26012KT 29/09 A299 RMK A01 T02900090  RH  029%=      5-min Rain = 0
KAD1 201630Z 27010KT 29/09 A299 RMK A01 T02900094  RH  029%=      5-min Rain = 0
KAD1 201631Z 27011KT 29/09 A299 RMK A01 T02900091  RH  029%=      5-min Rain = 0
KAD1 201632Z 28011KT 29/09 A299 RMK A01 T02910089  RH  028%=      5-min Rain = 0
KAD1 201633Z 28010KT 29/09 A299 RMK A01 T02900091  RH  029%=      5-min Rain = 0
KAD1 201634Z 28010KT 29/09 A299 RMK A01 T02890094  RH  029%=      5-min Rain = 0
KAD1 201635Z 28010KT 29/09 A299 RMK A01 T02890092  RH  029%=      5-min Rain = 0
KAD1 201641Z 26007KT 29/10 A299 RMK A01 T02930103  RH  031%=      5-min Rain = 0
KAD1 201642Z 25007KT 29/10 A299 RMK A01 T02940104  RH  031%=      5-min Rain = 0
KAD1 201643Z 26010KT 30/10 A299 RMK A01 T02950102  RH  030%=      5-min Rain = 0
KAD1 201644Z 26010KT 30/09 A299 RMK A01 T02970089  RH  027%=      5-min Rain = 0
KAD1 201645Z 26008KT 30/10 A299 RMK A01 T02970100  RH  029%=      5-min Rain = 0
KAD1 201646Z 26011KT 30/09 A299 RMK A01 T02980091  RH  028%=      5-min Rain = 0
KAD1 201647Z 26011KT 30/09 A299 RMK A01 T02980086  RH  027%=      5-min Rain = 0
KAD1 201648Z 27011KT 30/08 A299 RMK A01 T02970081  RH  026%=      5-min Rain = 0
KAD1 201649Z 27009KT 30/09 A299 RMK A01 T02960091  RH  028%=      5-min Rain = 0
KAD1 201650Z 26010KT 30/09 A299 RMK A01 T02970089  RH  027%=      5-min Rain = 0
KAD1 201651Z 26008KT 30/09 A299 RMK A01 T02970089  RH  027%=      5-min Rain = 0
KAD1 201652Z 25008KT 30/10 A299 RMK A01 T02980102  RH  030%=      5-min Rain = 0
KAD1 201653Z 24009KT 30/10 A299 RMK A01 T03000101  RH  029%=      5-min Rain = 0
KAD1 201654Z 25010KT 30/09 A299 RMK A01 T03020093  RH  027%=      5-min Rain = 0
KAD1 201655Z 26009KT 30/09 A299 RMK A01 T03010086  RH  026%=      5-min Rain = 0
KAD1 201656Z 26012KT 30/09 A299 RMK A01 T03010085  RH  026%=      5-min Rain = 0
KAD1 201657Z 27010KT 30/09 A299 RMK A01 T03020091  RH  027%=      5-min Rain = 0
KAD1 201658Z 27010KT 30/08 A299 RMK A01 T03030084  RH  026%=      5-min Rain = 0
KAD1 201659Z 27009KT 30/09 A299 RMK A01 T03030085  RH  026%=      5-min Rain = 0
KAD1 201700Z 27009KT 30/08 A299 RMK A01 T03020084  RH  026%=      5-min Rain = 0
KAD1 201701Z 26011KT 30/09 A299 RMK A01 T03010087  RH  026%=      5-min Rain = 0
KAD1 201702Z 26009KT 30/09 A299 RMK A01 T03010085  RH  026%=      5-min Rain = 0
KAD1 201703Z 25008KT 30/08 A299 RMK A01 T03010084  RH  026%=      5-min Rain = 0
KAD1 201704Z 23008KT 30/09 A299 RMK A01 T03010091  RH  027%=      5-min Rain = 0
KAD1 201705Z 25006KT 30/09 A299 RMK A01 T03020089  RH  027%=      5-min Rain = 0
KAD1 201706Z 26008KT 30/10 A299 RMK A01 T03020095  RH  028%=      5-min Rain = 0
KAD1 201707Z 25007KT 30/09 A299 RMK A01 T03040094  RH  027%=      5-min Rain = 0
KAD1 201708Z 24007KT 31/09 A299 RMK A01 T03050093  RH  027%=      5-min Rain = 0
KAD1 201709Z 24008KT 31/09 A299 RMK A01 T03050093  RH  027%=      5-min Rain = 0
KAD1 201710Z 25007KT 31/09 A299 RMK A01 T03050092  RH  027%=      5-min Rain = 0
KAD1 201711Z 27006KT 30/09 A299 RMK A01 T03040094  RH  027%=      5-min Rain = 0
KAD1 201712Z 26007KT 31/10 A299 RMK A01 T03060096  RH  027%=      5-min Rain = 0
KAD1 201713Z 26007KT 31/09 A299 RMK A01 T03070090  RH  026%=      5-min Rain = 0
KAD1 201714Z 26007KT 31/11 A299 RMK A01 T03080107  RH  029%=      5-min Rain = 0
KAD1 201715Z 25008KT 31/11 A299 RMK A01 T03120107  RH  028%=      5-min Rain = 0
KAD1 201716Z 25008KT 31/09 A299 RMK A01 T03120090  RH  025%=      5-min Rain = 0
KAD1 201717Z 26008KT 31/09 A299 RMK A01 T03090088  RH  025%=      5-min Rain = 0
KAD1 201718Z 25007KT 31/09 A299 RMK A01 T03080094  RH  027%=      5-min Rain = 0
KAD1 201719Z 24008KT 31/08 A299 RMK A01 T03080084  RH  025%=      5-min Rain = 0
KAD1 201720Z 27010KT 31/10 A299 RMK A01 T03080097  RH  027%=      5-min Rain = 0
KAD1 201721Z 28009KT 31/09 A299 RMK A01 T03090092  RH  026%=      5-min Rain = 0
KAD1 201722Z 25009KT 31/10 A299 RMK A01 T03100101  RH  027%=      5-min Rain = 0
KAD1 201723Z 26010KT 31/10 A299 RMK A01 T03130100  RH  027%=      5-min Rain = 0
KAD1 201724Z 26010KT 31/10 A299 RMK A01 T03140097  RH  026%=      5-min Rain = 0
KAD1 201725Z 26010KT 31/09 A299 RMK A01 T03140088  RH  025%=      5-min Rain = 0
KAD1 201726Z 26008KT 31/10 A299 RMK A01 T03130095  RH  026%=      5-min Rain = 0
KAD1 201727Z 27008KT 31/10 A299 RMK A01 T03120096  RH  026%=      5-min Rain = 0
KAD1 201728Z 27009KT 31/08 A299 RMK A01 T03140084  RH  024%=      5-min Rain = 0
KAD1 201729Z 28007KT 31/09 A299 RMK A01 T03140094  RH  026%=      5-min Rain = 0
KAD1 201730Z 28009KT 31/10 A299 RMK A01 T03130097  RH  026%=      5-min Rain = 0
KAD1 201731Z 27010KT 31/10 A299 RMK A01 T03140095  RH  026%=      5-min Rain = 0
KAD1 201732Z 27010KT 31/09 A299 RMK A01 T03140092  RH  025%=      5-min Rain = 0
KAD1 201733Z 27009KT 32/09 A299 RMK A01 T03150093  RH  025%=      5-min Rain = 0
KAD1 201734Z 26009KT 32/10 A299 RMK A01 T03150099  RH  027%=      5-min Rain = 0
KAD1 201735Z 25010KT 32/09 A299 RMK A01 T03150094  RH  025%=      5-min Rain = 0
KAD1 201736Z 25009KT 31/09 A299 RMK A01 T03140088  RH  025%=      5-min Rain = 0
KAD1 201737Z 26008KT 31/09 A299 RMK A01 T03130086  RH  025%=      5-min Rain = 0
KAD1 201738Z 26007KT 31/10 A299 RMK A01 T03120097  RH  026%=      5-min Rain = 0
KAD1 201739Z 26006KT 31/09 A299 RMK A01 T03120092  RH  026%=      5-min Rain = 0
KAD1 201740Z 25007KT 31/10 A299 RMK A01 T03120098  RH  027%=      5-min Rain = 0
KAD1 201741Z 25006KT 31/09 A299 RMK A01 T03130089  RH  025%=      5-min Rain = 0
KAD1 201742Z 24007KT 31/10 A299 RMK A01 T03130096  RH  026%=      5-min Rain = 0
KAD1 201743Z 24007KT 31/10 A299 RMK A01 T03140096  RH  026%=      5-min Rain = 0
KAD1 201744Z 24005KT 32/10 A299 RMK A01 T03160098  RH  026%=      5-min Rain = 0
KAD1 201745Z 26006KT 32/10 A299 RMK A01 T03180100  RH  026%=      5-min Rain = 0
KAD1 201746Z 26004KT 32/10 A299 RMK A01 T03190095  RH  025%=      5-min Rain = 0
KAD1 201747Z 30004KT 32/09 A299 RMK A01 T03190090  RH  024%=      5-min Rain = 0
KAD1 201748Z 29005KT 32/09 A2989 RMK A01 T03190091  RH  024%=      5-min Rain = 0
KAD1 201749Z 28004KT 32/10 A2989 RMK A01 T03190095  RH  025%=      5-min Rain = 0
KAD1 201750Z 28004KT 32/10 A2989 RMK A01 T03190098  RH  026%=      5-min Rain = 0
KAD1 201751Z 28006KT 32/09 A2989 RMK A01 T03190087  RH  024%=      5-min Rain = 0
KAD1 201752Z 29006KT 32/09 A2989 RMK A01 T03200093  RH  025%=      5-min Rain = 0
KAD1 201753Z 27006KT 32/09 A2989 RMK A01 T03210086  RH  023%=      5-min Rain = 0
KAD1 201754Z 26007KT 32/10 A2989 RMK A01 T03220098  RH  025%=      5-min Rain = 0
KAD1 201755Z 27008KT 32/07 A2989 RMK A01 T03240071  RH  021%=      5-min Rain = 0
KAD1 201756Z 27008KT 33/08 A2989 RMK A01 T03250084  RH  023%=      5-min Rain = 0
KAD1 201757Z 29006KT 33/08 A2989 RMK A01 T03250079  RH  022%=      5-min Rain = 0
KAD1 201758Z 26008KT 32/08 A2989 RMK A01 T03240082  RH  022%=      5-min Rain = 0
KAD1 201759Z 26009KT 33/08 A2989 RMK A01 T03250081  RH  022%=      5-min Rain = 0
KAD1 201800Z 27006KT 33/08 A2989 RMK A01 T03250077  RH  022%=      5-min Rain = 0
KAD1 201801Z 30006KT 33/07 A2989 RMK A01 T03250068  RH  020%=      5-min Rain = 0
KAD1 201802Z 30006KT 33/09 A2989 RMK A01 T03260085  RH  022%=      5-min Rain = 0
KAD1 201803Z 31009KT 33/06 A2989 RMK A01 T03270064  RH  019%=      5-min Rain = 0
KAD1 201804Z 29009KT 33/07 A2989 RMK A01 T03270074  RH  021%=      5-min Rain = 0
KAD1 201805Z 26007KT 33/08 A2989 RMK A01 T03270079  RH  022%=      5-min Rain = 0
KAD1 201806Z 26006KT 33/09 A2989 RMK A01 T03270085  RH  022%=      5-min Rain = 0
KAD1 201807Z 27007KT 33/09 A2989 RMK A01 T03290087  RH  022%=      5-min Rain = 0
KAD1 201808Z 28006KT 33/08 A2989 RMK A01 T03310076  RH  021%=      5-min Rain = 0
KAD1 201809Z 28004KT 33/07 A2989 RMK A01 T03310073  RH  020%=      5-min Rain = 0
KAD1 201810Z 28007KT 33/07 A2989 RMK A01 T03300070  RH  020%=      5-min Rain = 0
KAD1 201811Z 27006KT 33/08 A2989 RMK A01 T03290080  RH  021%=      5-min Rain = 0
KAD1 201812Z 31006KT 33/07 A2989 RMK A01 T03300073  RH  020%=      5-min Rain = 0
KAD1 201813Z 31008KT 33/06 A2989 RMK A01 T03300064  RH  019%=      5-min Rain = 0
KAD1 201814Z 30008KT 33/07 A2989 RMK A01 T03300072  RH  020%=      5-min Rain = 0
KAD1 201815Z 29007KT 33/06 A2989 RMK A01 T03310064  RH  019%=      5-min Rain = 0
KAD1 201816Z 29006KT 33/07 A2989 RMK A01 T03310074  RH  020%=      5-min Rain = 0
KAD1 201817Z 28006KT 33/07 A2989 RMK A01 T03330073  RH  020%=      5-min Rain = 0
KAD1 201818Z 31006KT 33/08 A2989 RMK A01 T03340079  RH  021%=      5-min Rain = 0
KAD1 201819Z 30008KT 33/08 A2989 RMK A01 T03340081  RH  021%=      5-min Rain = 0
KAD1 201820Z 29008KT 34/07 A2989 RMK A01 T03350066  RH  019%=      5-min Rain = 0
KAD1 201821Z 28008KT 33/07 A2989 RMK A01 T03320072  RH  020%=      5-min Rain = 0
KAD1 201822Z 27009KT 33/06 A2989 RMK A01 T03320062  RH  019%=      5-min Rain = 0
KAD1 201823Z 29009KT 33/06 A2989 RMK A01 T03330055  RH  018%=      5-min Rain = 0
KAD1 201824Z 32005KT 33/04 A2989 RMK A01 T03320039  RH  016%=      5-min Rain = 0
KAD1 201825Z 31005KT 33/05 A2989 RMK A01 T03290050  RH  018%=      5-min Rain = 0
KAD1 201826Z 28005KT 33/06 A2989 RMK A01 T03300057  RH  018%=      5-min Rain = 0
KAD1 201827Z 24006KT 33/07 A2989 RMK A01 T03300067  RH  019%=      5-min Rain = 0
KAD1 201828Z 24006KT 33/08 A2989 RMK A01 T03320077  RH  021%=      5-min Rain = 0
KAD1 201829Z 27006KT 33/07 A2989 RMK A01 T03330073  RH  020%=      5-min Rain = 0
KAD1 201830Z 28005KT 33/07 A2989 RMK A01 T03340070  RH  019%=      5-min Rain = 0
KAD1 201831Z 26007KT 33/08 A2988 RMK A01 T03340079  RH  021%=      5-min Rain = 0
KAD1 201832Z 28009KT 34/08 A2988 RMK A01 T03360075  RH  020%=      5-min Rain = 0
KAD1 201833Z 29009KT 34/07 A2988 RMK A01 T03380068  RH  019%=      5-min Rain = 0
KAD1 201834Z 28012KT 34/05 A2988 RMK A01 T03370053  RH  017%=      5-min Rain = 0
KAD1 201835Z 27011G16KT 34/06 A2988 RMK A01 T03360055  RH  017%=      5-min Rain = 0
KAD1 201836Z 26014G19KT 34/05 A2988 RMK A01 T03370052  RH  017%=      5-min Rain = 0
KAD1 201837Z 26013KT 34/05 A2988 RMK A01 T03370050  RH  017%=      5-min Rain = 0
KAD1 201838Z 28015G20KT 34/05 A2988 RMK A01 T03370048  RH  016%=      5-min Rain = 0
KAD1 201839Z 28011G16KT 34/03 A2988 RMK A01 T03360032  RH  015%=      5-min Rain = 0
KAD1 201840Z 28011KT 34/05 A2988 RMK A01 T03350049  RH  017%=      5-min Rain = 0
KAD1 201841Z 29012G19KT 34/06 A2988 RMK A01 T03360060  RH  018%=      5-min Rain = 0
KAD1 201842Z 28012G17KT 34/06 A2988 RMK A01 T03380060  RH  018%=      5-min Rain = 0
KAD1 201843Z 27013KT 34/04 A2988 RMK A01 T03400040  RH  015%=      5-min Rain = 0
KAD1 201844Z 26012KT 34/05 A2988 RMK A01 T03390051  RH  017%=      5-min Rain = 0
KAD1 201845Z 25010KT 34/04 A2988 RMK A01 T03380042  RH  016%=      5-min Rain = 0
KAD1 201846Z 25008KT 34/06 A2988 RMK A01 T03380055  RH  017%=      5-min Rain = 0
KAD1 201847Z 26008KT 34/05 A2988 RMK A01 T03380048  RH  016%=      5-min Rain = 0
KAD1 201848Z 26009KT 34/05 A2988 RMK A01 T03390049  RH  016%=      5-min Rain = 0
KAD1 201849Z 27009G15KT 34/06 A2988 RMK A01 T03400058  RH  017%=      5-min Rain = 0
KAD1 201850Z 27015KT 34/05 A2988 RMK A01 T03410053  RH  017%=      5-min Rain = 0
KAD1 201851Z 24011KT 34/06 A2988 RMK A01 T03430060  RH  017%=      5-min Rain = 0
KAD1 201852Z 24012KT 34/05 A2988 RMK A01 T03430046  RH  016%=      5-min Rain = 0
KAD1 201853Z 23010G15KT 34/06 A2988 RMK A01 T03420055  RH  017%=      5-min Rain = 0
KAD1 201854Z 23014KT 34/06 A2987 RMK A01 T03410055  RH  017%=      5-min Rain = 0
KAD1 201855Z 22015KT 34/06 A2987 RMK A01 T03420055  RH  017%=      5-min Rain = 0
KAD1 201856Z 22016KT 34/05 A2987 RMK A01 T03430050  RH  016%=      5-min Rain = 0
KAD1 201857Z 22014KT 34/06 A2987 RMK A01 T03420056  RH  017%=      5-min Rain = 0
KAD1 201858Z 23012KT 34/07 A2987 RMK A01 T03420065  RH  018%=      5-min Rain = 0
KAD1 201859Z 23015G20KT 34/05 A2987 RMK A01 T03420054  RH  017%=      5-min Rain = 0
KAD1 201900Z 24014G19KT 34/04 A2987 RMK A01 T03420041  RH  015%=      5-min Rain = 0
KAD1 201901Z 24011KT 34/06 A2987 RMK A01 T03420059  RH  017%=      5-min Rain = 0
KAD1 201902Z 24014G19KT 34/06 A2987 RMK A01 T03440062  RH  017%=      5-min Rain = 0
KAD1 201903Z 26012KT 34/05 A2987 RMK A01 T03430047  RH  016%=      5-min Rain = 0
KAD1 201904Z 26009KT 34/04 A2987 RMK A01 T03390040  RH  015%=      5-min Rain = 0
KAD1 201905Z 26008KT 34/04 A2987 RMK A01 T03370044  RH  016%=      5-min Rain = 0
KAD1 201906Z 25009KT 34/06 A2987 RMK A01 T03380060  RH  018%=      5-min Rain = 0
KAD1 201907Z 25012KT 34/05 A2987 RMK A01 T03390050  RH  017%=      5-min Rain = 0
KAD1 201908Z 25014KT 34/04 A2987 RMK A01 T03370040  RH  016%=      5-min Rain = 0
KAD1 201909Z 26011KT 34/04 A2987 RMK A01 T03350041  RH  016%=      5-min Rain = 0
KAD1 201910Z 25007KT 34/06 A2987 RMK A01 T03370061  RH  018%=      5-min Rain = 0
KAD1 201911Z 30009KT 34/06 A2987 RMK A01 T03400057  RH  017%=      5-min Rain = 0
KAD1 201912Z 27008KT 34/05 A2987 RMK A01 T03410052  RH  017%=      5-min Rain = 0
KAD1 201913Z 27008KT 34/06 A2987 RMK A01 T03420064  RH  018%=      5-min Rain = 0
KAD1 201914Z 27008KT 34/06 A2987 RMK A01 T03430058  RH  017%=      5-min Rain = 0
KAD1 201915Z 26006KT 34/06 A2987 RMK A01 T03430059  RH  017%=      5-min Rain = 0
KAD1 201916Z 26010KT 34/05 A2987 RMK A01 T03440050  RH  016%=      5-min Rain = 0
KAD1 201917Z 26009KT 34/03 A2987 RMK A01 T03420032  RH  014%=      5-min Rain = 0
KAD1 201918Z 26011KT 34/04 A2987 RMK A01 T03400041  RH  015%=      5-min Rain = 0
KAD1 201919Z 25010KT 34/03 A2987 RMK A01 T03370034  RH  015%=      5-min Rain = 0
KAD1 201920Z 25011KT 34/04 A2987 RMK A01 T03350038  RH  016%=      5-min Rain = 0
KAD1 201921Z 25011KT 33/04 A2987 RMK A01 T03330037  RH  016%=      5-min Rain = 0
KAD1 201922Z 24012KT 33/04 A2987 RMK A01 T03330042  RH  016%=      5-min Rain = 0
KAD1 201923Z 25013KT 34/05 A2987 RMK A01 T03370049  RH  017%=      5-min Rain = 0
KAD1 201924Z 27014KT 34/05 A2987 RMK A01 T03420054  RH  017%=      5-min Rain = 0
KAD1 201925Z 26011KT 35/05 A2987 RMK A01 T03450050  RH  016%=      5-min Rain = 0
KAD1 201926Z 27010KT 35/04 A2987 RMK A01 T03460041  RH  015%=      5-min Rain = 0
KAD1 201927Z 25011G18KT 35/05 A2987 RMK A01 T03460048  RH  016%=      5-min Rain = 0
KAD1 201928Z 27014KT 35/04 A2987 RMK A01 T03470044  RH  015%=      5-min Rain = 0
KAD1 201929Z 27012KT 35/04 A2987 RMK A01 T03450043  RH  015%=      5-min Rain = 0
KAD1 201930Z 27012KT 34/03 A2987 RMK A01 T03440034  RH  014%=      5-min Rain = 0
KAD1 201931Z 27011KT 34/03 A2986 RMK A01 T03430031  RH  014%=      5-min Rain = 0
KAD1 201932Z 28011KT 34/03 A2986 RMK A01 T03430033  RH  014%=      5-min Rain = 0
KAD1 201933Z 27012KT 34/05 A2986 RMK A01 T03440054  RH  017%=      5-min Rain = 0
KAD1 201934Z 26015KT 35/05 A2986 RMK A01 T03450049  RH  016%=      5-min Rain = 0
KAD1 201935Z 25018KT 35/05 A2986 RMK A01 T03460050  RH  016%=      5-min Rain = 0
KAD1 201936Z 25017KT 35/04 A2986 RMK A01 T03470044  RH  015%=      5-min Rain = 0
KAD1 201937Z 24015KT 35/04 A2986 RMK A01 T03480044  RH  015%=      5-min Rain = 0
KAD1 201938Z 26017KT 35/04 A2986 RMK A01 T03460041  RH  015%=      5-min Rain = 0
KAD1 201939Z 25018KT 34/03 A2986 RMK A01 T03430032  RH  014%=      5-min Rain = 0
KAD1 201940Z 26014KT 34/04 A2986 RMK A01 T03400035  RH  015%=      5-min Rain = 0
KAD1 201941Z 25015KT 34/05 A2986 RMK A01 T03400047  RH  016%=      5-min Rain = 0
KAD1 201942Z 26014KT 34/04 A2986 RMK A01 T03420038  RH  015%=      5-min Rain = 0
KAD1 201943Z 25014KT 34/04 A2986 RMK A01 T03410043  RH  016%=      5-min Rain = 0
KAD1 201944Z 25014KT 34/05 A2986 RMK A01 T03420052  RH  016%=      5-min Rain = 0
KAD1 201945Z 25015KT 35/04 A2986 RMK A01 T03450043  RH  015%=      5-min Rain = 0
KAD1 201946Z 24013KT 35/04 A2986 RMK A01 T03460042  RH  015%=      5-min Rain = 0
KAD1 201947Z 25012KT 35/04 A2986 RMK A01 T03460043  RH  015%=      5-min Rain = 0
KAD1 201948Z 26013KT 35/04 A2986 RMK A01 T03460035  RH  014%=      5-min Rain = 0
KAD1 201949Z 25011G17KT 35/04 A2986 RMK A01 T03450044  RH  015%=      5-min Rain = 0
KAD1 201950Z 24017KT 35/05 A2986 RMK A01 T03470045  RH  015%=      5-min Rain = 0
KAD1 201951Z 25015KT 35/03 A2986 RMK A01 T03470032  RH  014%=      5-min Rain = 0
KAD1 201952Z 27012G17KT 35/04 A2986 RMK A01 T03450037  RH  015%=      5-min Rain = 0
KAD1 201953Z 27012G17KT 35/04 A2986 RMK A01 T03460038  RH  015%=      5-min Rain = 0
KAD1 201954Z 26012KT 35/04 A2986 RMK A01 T03470036  RH  014%=      5-min Rain = 0
KAD1 201955Z 26012KT 35/03 A2986 RMK A01 T03470031  RH  014%=      5-min Rain = 0
KAD1 201956Z 28012KT 35/04 A2986 RMK A01 T03470042  RH  015%=      5-min Rain = 0
KAD1 201957Z 28012KT 35/04 A2986 RMK A01 T03480036  RH  014%=      5-min Rain = 0
KAD1 201958Z 28010KT 35/04 A2985 RMK A01 T03470037  RH  014%=      5-min Rain = 0
KAD1 201959Z 29016KT 35/04 A2985 RMK A01 T03450038  RH  015%=      5-min Rain = 0
KAD1 202000Z 28018KT 34/03 A2985 RMK A01 T03430028  RH  014%=      5-min Rain = 0
KAD1 202001Z 26015KT 34/03 A2985 RMK A01 T03440030  RH  014%=      5-min Rain = 0
KAD1 202002Z 24015KT 35/03 A2985 RMK A01 T03470034  RH  014%=      5-min Rain = 0
KAD1 202003Z 25013KT 35/04 A2985 RMK A01 T03480044  RH  015%=      5-min Rain = 0
KAD1 202004Z 26012KT 35/04 A2985 RMK A01 T03480035  RH  014%=      5-min Rain = 0
KAD1 202005Z 26010KT 35/03 A2985 RMK A01 T03480030  RH  014%=      5-min Rain = 0
KAD1 202006Z 27010KT 35/03 A2985 RMK A01 T03450026  RH  013%=      5-min Rain = 0
KAD1 202007Z 26010KT 34/03 A2985 RMK A01 T03410034  RH  015%=      5-min Rain = 0
KAD1 202008Z 25009KT 34/05 A2985 RMK A01 T03380051  RH  017%=      5-min Rain = 0
KAD1 202009Z 26012KT 33/04 A2985 RMK A01 T03340042  RH  016%=      5-min Rain = 0
KAD1 202010Z 25012KT 33/03 A2985 RMK A01 T03330034  RH  015%=      5-min Rain = 0
KAD1 202011Z 25011KT 34/06 A2985 RMK A01 T03350057  RH  018%=      5-min Rain = 0
KAD1 202012Z 25014KT 34/04 A2985 RMK A01 T03390043  RH  016%=      5-min Rain = 0
KAD1 202013Z 25013KT 34/03 A2985 RMK A01 T03420034  RH  015%=      5-min Rain = 0
KAD1 202014Z 24011KT 34/04 A2985 RMK A01 T03440039  RH  015%=      5-min Rain = 0
KAD1 202015Z 24009KT 35/06 A2985 RMK A01 T03460056  RH  017%=      5-min Rain = 0
KAD1 202016Z 25008KT 35/05 A2985 RMK A01 T03480045  RH  015%=      5-min Rain = 0
KAD1 202017Z 24010KT 35/06 A2985 RMK A01 T03490062  RH  017%=      5-min Rain = 0
KAD1 202018Z 24013KT 35/04 A2985 RMK A01 T03480044  RH  015%=      5-min Rain = 0
KAD1 202019Z 25011KT 34/05 A2985 RMK A01 T03440046  RH  016%=      5-min Rain = 0
KAD1 202020Z 24010KT 34/05 A2985 RMK A01 T03400050  RH  016%=      5-min Rain = 0
KAD1 202021Z 25014KT 34/04 A2985 RMK A01 T03370035  RH  015%=      5-min Rain = 0
KAD1 202022Z 25012KT 34/04 A2985 RMK A01 T03370036  RH  015%=      5-min Rain = 0
KAD1 202023Z 26011KT 34/04 A2985 RMK A01 T03410044  RH  016%=      5-min Rain = 0
KAD1 202024Z 25013KT 35/03 A2985 RMK A01 T03450032  RH  014%=      5-min Rain = 0
KAD1 202025Z 26013KT 35/04 A2985 RMK A01 T03470039  RH  015%=      5-min Rain = 0
KAD1 202026Z 26010KT 35/03 A2985 RMK A01 T03470032  RH  014%=      5-min Rain = 0
KAD1 202027Z 26009KT 35/03 A2985 RMK A01 T03470034  RH  014%=      5-min Rain = 0
KAD1 202028Z 25009KT 35/05 A2985 RMK A01 T03450050  RH  016%=      5-min Rain = 0
KAD1 202029Z 25009KT 34/04 A2985 RMK A01 T03420041  RH  015%=      5-min Rain = 0
KAD1 202030Z 26010KT 34/05 A2985 RMK A01 T03390049  RH  016%=      5-min Rain = 0
KAD1 202031Z 26010KT 34/03 A2985 RMK A01 T03360034  RH  015%=      5-min Rain = 0
KAD1 202032Z 25009KT 33/05 A2985 RMK A01 T03340047  RH  017%=      5-min Rain = 0
KAD1 202033Z 26011KT 33/04 A2985 RMK A01 T03320042  RH  016%=      5-min Rain = 0
KAD1 202034Z 25010KT 34/03 A2985 RMK A01 T03350034  RH  015%=      5-min Rain = 0
KAD1 202035Z 24009KT 34/03 A2984 RMK A01 T03390032  RH  014%=      5-min Rain = 0
KAD1 202036Z 24009KT 34/04 A2984 RMK A01 T03430043  RH  015%=      5-min Rain = 0
KAD1 202037Z 24009KT 35/05 A2984 RMK A01 T03450053  RH  016%=      5-min Rain = 0
KAD1 202038Z 23011KT 35/05 A2984 RMK A01 T03460048  RH  016%=      5-min Rain = 0
KAD1 202039Z 25014KT 34/04 A2984 RMK A01 T03440044  RH  015%=      5-min Rain = 0
KAD1 202040Z 25015KT 34/04 A2984 RMK A01 T03410036  RH  015%=      5-min Rain = 0
KAD1 202041Z 24014KT 34/05 A2984 RMK A01 T03410046  RH  016%=      5-min Rain = 0
KAD1 202042Z 25017KT 34/04 A2984 RMK A01 T03440042  RH  015%=      5-min Rain = 0
KAD1 202043Z 25016KT 34/04 A2984 RMK A01 T03430036  RH  015%=      5-min Rain = 0
KAD1 202044Z 25015KT 34/03 A2984 RMK A01 T03410032  RH  014%=      5-min Rain = 0
KAD1 202045Z 25015KT 34/03 A2984 RMK A01 T03420028  RH  014%=      5-min Rain = 0
KAD1 202046Z 26014KT 35/05 A2984 RMK A01 T03460047  RH  015%=      5-min Rain = 0
KAD1 202047Z 26014KT 35/04 A2984 RMK A01 T03510043  RH  015%=      5-min Rain = 0
KAD1 202048Z 28014KT 35/04 A2984 RMK A01 T03520036  RH  014%=      5-min Rain = 0
KAD1 202049Z 26017KT 35/04 A2984 RMK A01 T03530041  RH  014%=      5-min Rain = 0
KAD1 202050Z 26014KT 35/03 A2984 RMK A01 T03540032  RH  013%=      5-min Rain = 0
KAD1 202051Z 27013KT 35/03 A2984 RMK A01 T03520033  RH  014%=      5-min Rain = 0
KAD1 202052Z 27014KT 35/03 A2984 RMK A01 T03510034  RH  014%=      5-min Rain = 0
KAD1 202053Z 27013KT 35/03 A2984 RMK A01 T03510033  RH  014%=      5-min Rain = 0
KAD1 202054Z 27014KT 35/03 A2984 RMK A01 T03510031  RH  014%=      5-min Rain = 0
KAD1 202055Z 27013KT 35/03 A2984 RMK A01 T03510032  RH  014%=      5-min Rain = 0
KAD1 202056Z 26011KT 35/04 A2984 RMK A01 T03510044  RH  015%=      5-min Rain = 0
KAD1 202057Z 25012KT 35/05 A2984 RMK A01 T03510047  RH  015%=      5-min Rain = 0
KAD1 202058Z 24011KT 35/04 A2984 RMK A01 T03460040  RH  015%=      5-min Rain = 0
KAD1 202059Z 25010KT 34/04 A2984 RMK A01 T03410042  RH  015%=      5-min Rain = 0
KAD1 202100Z 24008KT 34/04 A2983 RMK A01 T03380041  RH  016%=      5-min Rain = 0
KAD1 202101Z 25010KT 34/04 A2983 RMK A01 T03370037  RH  015%=      5-min Rain = 0
KAD1 202102Z 26008KT 34/03 A2983 RMK A01 T03400028  RH  014%=      5-min Rain = 0
KAD1 202103Z 25008KT 34/03 A2983 RMK A01 T03430031  RH  014%=      5-min Rain = 0
KAD1 202104Z 26008KT 34/05 A2983 RMK A01 T03430045  RH  016%=      5-min Rain = 0
KAD1 202105Z 26007KT 34/04 A2983 RMK A01 T03420039  RH  015%=      5-min Rain = 0
KAD1 202106Z 27006KT 34/04 A2983 RMK A01 T03410040  RH  015%=      5-min Rain = 0
KAD1 202107Z 26006KT 34/05 A2983 RMK A01 T03400046  RH  016%=      5-min Rain = 0
KAD1 202108Z 27006KT 34/05 A2983 RMK A01 T03410050  RH  016%=      5-min Rain = 0
KAD1 202109Z 27007KT 35/05 A2983 RMK A01 T03450045  RH  015%=      5-min Rain = 0
KAD1 202110Z 27006KT 35/05 A2983 RMK A01 T03480050  RH  016%=      5-min Rain = 0
KAD1 202111Z 28007KT 35/06 A2983 RMK A01 T03500057  RH  016%=      5-min Rain = 0
KAD1 202112Z 27007KT 35/05 A2983 RMK A01 T03520050  RH  015%=      5-min Rain = 0
KAD1 202113Z 28005KT 35/07 A2983 RMK A01 T03540068  RH  017%=      5-min Rain = 0
KAD1 202114Z 27008KT 36/06 A2983 RMK A01 T03550062  RH  016%=      5-min Rain = 0
KAD1 202115Z 26010KT 36/04 A2983 RMK A01 T03560038  RH  014%=      5-min Rain = 0
KAD1 202116Z 26010KT 35/03 A2983 RMK A01 T03530032  RH  013%=      5-min Rain = 0
KAD1 202117Z 22010KT 35/05 A2983 RMK A01 T03520049  RH  015%=      5-min Rain = 0
KAD1 202118Z 22012KT 35/05 A2983 RMK A01 T03530048  RH  015%=      5-min Rain = 0
KAD1 202119Z 24010KT 35/04 A2983 RMK A01 T03530041  RH  014%=      5-min Rain = 0
KAD1 202120Z 24011KT 35/05 A2983 RMK A01 T03530045  RH  015%=      5-min Rain = 0
KAD1 202121Z 25011KT 35/04 A2983 RMK A01 T03520042  RH  015%=      5-min Rain = 0
KAD1 202122Z 26009KT 35/04 A2983 RMK A01 T03510040  RH  014%=      5-min Rain = 0
KAD1 202123Z 26009KT 35/05 A2982 RMK A01 T03510050  RH  015%=      5-min Rain = 0
KAD1 202124Z 26008KT 35/04 A2982 RMK A01 T03530044  RH  015%=      5-min Rain = 0
KAD1 202125Z 27008KT 35/03 A2982 RMK A01 T03540031  RH  013%=      5-min Rain = 0
KAD1 202126Z 28010KT 35/04 A2982 RMK A01 T03530037  RH  014%=      5-min Rain = 0
KAD1 202127Z 28012G17KT 35/03 A2982 RMK A01 T03530034  RH  014%=      5-min Rain = 0
KAD1 202128Z 25011KT 35/05 A2982 RMK A01 T03530051  RH  015%=      5-min Rain = 0
KAD1 202129Z 24016G22KT 36/06 A2982 RMK A01 T03550058  RH  016%=      5-min Rain = 0
KAD1 202130Z 23016KT 36/04 A2982 RMK A01 T03560043  RH  014%=      5-min Rain = 0
KAD1 202131Z 25013KT 36/04 A2982 RMK A01 T03560040  RH  014%=      5-min Rain = 0
KAD1 202132Z 25016G23KT 36/05 A2982 RMK A01 T03550046  RH  015%=      5-min Rain = 0
KAD1 202133Z 24016G21KT 36/05 A2982 RMK A01 T03550049  RH  015%=      5-min Rain = 0
KAD1 202134Z 23015KT 36/05 A2982 RMK A01 T03570054  RH  015%=      5-min Rain = 0
KAD1 202135Z 23016KT 36/06 A2982 RMK A01 T03580055  RH  015%=      5-min Rain = 0
KAD1 202136Z 22015KT 36/03 A2982 RMK A01 T03570033  RH  013%=      5-min Rain = 0
KAD1 202137Z 22014KT 35/03 A2982 RMK A01 T03540034  RH  014%=      5-min Rain = 0
KAD1 202138Z 21015G22KT 35/04 A2982 RMK A01 T03540036  RH  014%=      5-min Rain = 0
KAD1 202139Z 21014KT 35/03 A2982 RMK A01 T03540029  RH  013%=      5-min Rain = 0
KAD1 202140Z 22014KT 35/03 A2982 RMK A01 T03540030  RH  013%=      5-min Rain = 0
KAD1 202141Z 22016KT 35/03 A2982 RMK A01 T03530030  RH  013%=      5-min Rain = 0
KAD1 202142Z 23014KT 35/04 A2982 RMK A01 T03520038  RH  014%=      5-min Rain = 0
KAD1 202143Z 23012KT 35/03 A2982 RMK A01 T03520034  RH  014%=      5-min Rain = 0
KAD1 202144Z 23012KT 35/05 A2982 RMK A01 T03510048  RH  015%=      5-min Rain = 0
KAD1 202145Z 23017KT 35/04 A2982 RMK A01 T03520039  RH  014%=      5-min Rain = 0
KAD1 202146Z 24015KT 35/03 A2982 RMK A01 T03520032  RH  014%=      5-min Rain = 0
KAD1 202147Z 25016KT 35/03 A2982 RMK A01 T03510028  RH  013%=      5-min Rain = 0
KAD1 202148Z 25012KT 35/02 A2982 RMK A01 T03460018  RH  013%=      5-min Rain = 0
KAD1 202149Z 25013KT 34/03 A2982 RMK A01 T03430027  RH  014%=      5-min Rain = 0
KAD1 202150Z 25014KT 34/02 A2982 RMK A01 T03400021  RH  013%=      5-min Rain = 0
KAD1 202151Z 25011KT 34/02 A2982 RMK A01 T03370020  RH  013%=      5-min Rain = 0
KAD1 202152Z 26009KT 34/03 A2982 RMK A01 T03350029  RH  015%=      5-min Rain = 0
KAD1 202153Z 25012KT 34/03 A2982 RMK A01 T03350029  RH  015%=      5-min Rain = 0
KAD1 202154Z 24009KT 34/04 A2982 RMK A01 T03410039  RH  015%=      5-min Rain = 0
KAD1 202155Z 25009G14KT 35/05 A2982 RMK A01 T03460052  RH  016%=      5-min Rain = 0
KAD1 202156Z 26012KT 35/04 A2981 RMK A01 T03490037  RH  014%=      5-min Rain = 0
KAD1 202157Z 24010KT 35/05 A2981 RMK A01 T03510047  RH  015%=      5-min Rain = 0
KAD1 202158Z 24011KT 35/05 A2981 RMK A01 T03530049  RH  015%=      5-min Rain = 0
KAD1 202159Z 24011KT 35/04 A2981 RMK A01 T03540036  RH  014%=      5-min Rain = 0
KAD1 202200Z 23014KT 35/03 A2981 RMK A01 T03530033  RH  014%=      5-min Rain = 0
KAD1 202201Z 25012KT 35/03 A2981 RMK A01 T03520034  RH  014%=      5-min Rain = 0
KAD1 202202Z 25010KT 35/05 A2981 RMK A01 T03520050  RH  015%=      5-min Rain = 0
KAD1 202203Z 27010KT 35/03 A2981 RMK A01 T03510034  RH  014%=      5-min Rain = 0
KAD1 202204Z 27008KT 35/02 A2981 RMK A01 T03500020  RH  013%=      5-min Rain = 0
KAD1 202205Z 28009KT 35/03 A2981 RMK A01 T03500029  RH  013%=      5-min Rain = 0
KAD1 202206Z 26009KT 35/05 A2981 RMK A01 T03510045  RH  015%=      5-min Rain = 0
KAD1 202207Z 26009KT 35/03 A2981 RMK A01 T03510026  RH  013%=      5-min Rain = 0
KAD1 202208Z 26009KT 35/04 A2981 RMK A01 T03490039  RH  014%=      5-min Rain = 0
KAD1 202209Z 25011KT 35/05 A2981 RMK A01 T03480046  RH  015%=      5-min Rain = 0
KAD1 202210Z 25011KT 35/04 A2981 RMK A01 T03480037  RH  014%=      5-min Rain = 0
KAD1 202211Z 26009KT 35/04 A2981 RMK A01 T03470036  RH  014%=      5-min Rain = 0
KAD1 202212Z 24008KT 35/05 A2981 RMK A01 T03460053  RH  016%=      5-min Rain = 0
KAD1 202213Z 25008KT 35/06 A2981 RMK A01 T03480060  RH  017%=      5-min Rain = 0
KAD1 202214Z 24011KT 35/05 A2981 RMK A01 T03510048  RH  015%=      5-min Rain = 0
KAD1 202215Z 25010KT 35/05 A2981 RMK A01 T03520053  RH  016%=      5-min Rain = 0
KAD1 202216Z 26012KT 35/03 A2981 RMK A01 T03530034  RH  014%=      5-min Rain = 0
KAD1 202217Z 26011KT 35/03 A2981 RMK A01 T03530032  RH  013%=      5-min Rain = 0
KAD1 202218Z 25010KT 35/04 A2981 RMK A01 T03530037  RH  014%=      5-min Rain = 0
KAD1 202219Z 25012KT 35/04 A2981 RMK A01 T03530044  RH  015%=      5-min Rain = 0
KAD1 202220Z 25013KT 35/05 A2981 RMK A01 T03540050  RH  015%=      5-min Rain = 0
KAD1 202221Z 25013KT 35/03 A2981 RMK A01 T03540027  RH  013%=      5-min Rain = 0
KAD1 202222Z 24014KT 35/03 A2981 RMK A01 T03520027  RH  013%=      5-min Rain = 0
KAD1 202223Z 24013KT 35/03 A298 RMK A01 T03520031  RH  013%=      5-min Rain = 0
KAD1 202224Z 25012KT 35/03 A298 RMK A01 T03510030  RH  013%=      5-min Rain = 0
KAD1 202225Z 25013KT 35/02 A298 RMK A01 T03490020  RH  013%=      5-min Rain = 0
KAD1 202226Z 26011KT 35/03 A298 RMK A01 T03460032  RH  014%=      5-min Rain = 0
KAD1 202227Z 25011KT 34/04 A298 RMK A01 T03430037  RH  015%=      5-min Rain = 0
KAD1 202228Z 25010KT 34/03 A298 RMK A01 T03410033  RH  014%=      5-min Rain = 0
KAD1 202229Z 25011KT 34/03 A298 RMK A01 T03390031  RH  014%=      5-min Rain = 0
KAD1 202230Z 25010KT 34/03 A298 RMK A01 T03410033  RH  015%=      5-min Rain = 0
KAD1 202231Z 24013KT 34/03 A298 RMK A01 T03420033  RH  014%=      5-min Rain = 0
KAD1 202232Z 24015KT 34/03 A298 RMK A01 T03410027  RH  014%=      5-min Rain = 0
KAD1 202233Z 23013KT 34/04 A298 RMK A01 T03400035  RH  015%=      5-min Rain = 0
KAD1 202234Z 23016KT 34/03 A298 RMK A01 T03430032  RH  014%=      5-min Rain = 0
KAD1 202235Z 24015KT 35/03 A298 RMK A01 T03470029  RH  014%=      5-min Rain = 0
KAD1 202236Z 23013KT 35/04 A298 RMK A01 T03480037  RH  014%=      5-min Rain = 0
KAD1 202237Z 23013KT 35/04 A298 RMK A01 T03480038  RH  014%=      5-min Rain = 0
KAD1 202238Z 22015KT 35/04 A298 RMK A01 T03490039  RH  014%=      5-min Rain = 0
KAD1 202239Z 23014KT 35/04 A298 RMK A01 T03500040  RH  014%=      5-min Rain = 0
KAD1 202240Z 22014KT 35/04 A298 RMK A01 T03500040  RH  015%=      5-min Rain = 0
KAD1 202241Z 22015KT 35/03 A298 RMK A01 T03450027  RH  014%=      5-min Rain = 0
KAD1 202242Z 22015KT 34/02 A298 RMK A01 T03410024  RH  014%=      5-min Rain = 0
KAD1 202243Z 22014KT 34/03 A298 RMK A01 T03400025  RH  014%=      5-min Rain = 0
KAD1 202244Z 22011KT 34/03 A298 RMK A01 T03410026  RH  014%=      5-min Rain = 0
KAD1 202245Z 22012KT 35/04 A298 RMK A01 T03450038  RH  015%=      5-min Rain = 0
KAD1 202246Z 21013KT 35/04 A298 RMK A01 T03480037  RH  014%=      5-min Rain = 0
KAD1 202247Z 21014G19KT 35/03 A298 RMK A01 T03500032  RH  014%=      5-min Rain = 0
KAD1 202248Z 22014KT 35/02 A298 RMK A01 T03510022  RH  013%=      5-min Rain = 0
KAD1 202249Z 21013KT 35/03 A298 RMK A01 T03510030  RH  013%=      5-min Rain = 0
KAD1 202250Z 21014KT 35/03 A298 RMK A01 T03510026  RH  013%=      5-min Rain = 0
KAD1 202251Z 20012KT 35/03 A298 RMK A01 T03510034  RH  014%=      5-min Rain = 0
KAD1 202252Z 21010KT 35/04 A298 RMK A01 T03510044  RH  015%=      5-min Rain = 0
KAD1 202253Z 21012KT 35/05 A298 RMK A01 T03520046  RH  015%=      5-min Rain = 0
KAD1 202254Z 21013KT 35/04 A298 RMK A01 T03520043  RH  015%=      5-min Rain = 0
KAD1 202255Z 21014KT 35/04 A298 RMK A01 T03520037  RH  014%=      5-min Rain = 0
KAD1 202256Z 22013KT 35/04 A298 RMK A01 T03500035  RH  014%=      5-min Rain = 0
KAD1 202257Z 22012KT 35/04 A298 RMK A01 T03460037  RH  015%=      5-min Rain = 0
KAD1 202258Z 22016KT 34/03 A298 RMK A01 T03420034  RH  015%=      5-min Rain = 0
KAD1 202259Z 22014KT 34/03 A298 RMK A01 T03420032  RH  014%=      5-min Rain = 0
KAD1 202300Z 23011KT 34/05 A298 RMK A01 T03440045  RH  016%=      5-min Rain = 0
KAD1 202301Z 23013KT 34/04 A298 RMK A01 T03440037  RH  015%=      5-min Rain = 0
KAD1 202302Z 22012KT 34/03 A298 RMK A01 T03410031  RH  014%=      5-min Rain = 0
KAD1 202303Z 22012KT 34/04 A298 RMK A01 T03390035  RH  015%=      5-min Rain = 0
KAD1 202304Z 22012KT 34/04 A298 RMK A01 T03360038  RH  015%=      5-min Rain = 0
KAD1 202305Z 21011KT 33/04 A298 RMK A01 T03340038  RH  016%=      5-min Rain = 0
KAD1 202306Z 22011KT 33/04 A298 RMK A01 T03330037  RH  016%=      5-min Rain = 0
KAD1 202307Z 23012KT 33/04 A298 RMK A01 T03320035  RH  015%=      5-min Rain = 0
KAD1 202308Z 23012KT 33/04 A298 RMK A01 T03310036  RH  016%=      5-min Rain = 0
KAD1 202309Z 23013KT 33/03 A298 RMK A01 T03300029  RH  015%=      5-min Rain = 0
KAD1 202310Z 23012KT 33/03 A298 RMK A01 T03300029  RH  015%=      5-min Rain = 0
KAD1 202311Z 23012KT 33/03 A298 RMK A01 T03300030  RH  015%=      5-min Rain = 0
KAD1 202312Z 23011KT 33/03 A298 RMK A01 T03290030  RH  015%=      5-min Rain = 0
KAD1 202313Z 24011KT 33/03 A298 RMK A01 T03260028  RH  015%=      5-min Rain = 0
KAD1 202314Z 24009KT 33/03 A2979 RMK A01 T03250032  RH  016%=      5-min Rain = 0
KAD1 202315Z 24008KT 32/04 A2979 RMK A01 T03230036  RH  016%=      5-min Rain = 0
KAD1 202316Z 24008KT 32/04 A2979 RMK A01 T03210041  RH  017%=      5-min Rain = 0
KAD1 202317Z 24007KT 32/05 A2979 RMK A01 T03210048  RH  018%=      5-min Rain = 0
KAD1 202318Z 24007KT 32/06 A2979 RMK A01 T03240057  RH  019%=      5-min Rain = 0
KAD1 202319Z 25007KT 33/06 A2979 RMK A01 T03280058  RH  019%=      5-min Rain = 0
KAD1 202320Z 26005KT 33/06 A2979 RMK A01 T03330056  RH  018%=      5-min Rain = 0
KAD1 202321Z 25008KT 34/06 A2979 RMK A01 T03360062  RH  018%=      5-min Rain = 0
KAD1 202322Z 25009KT 34/04 A2979 RMK A01 T03390044  RH  016%=      5-min Rain = 0
KAD1 202323Z 24008KT 34/04 A2979 RMK A01 T03400039  RH  015%=      5-min Rain = 0
KAD1 202324Z 24005KT 34/05 A2979 RMK A01 T03410049  RH  016%=      5-min Rain = 0
KAD1 202325Z 24007KT 34/06 A2979 RMK A01 T03410059  RH  017%=      5-min Rain = 0
KAD1 202326Z 25008KT 34/05 A2979 RMK A01 T03390054  RH  017%=      5-min Rain = 0
KAD1 202327Z 24008KT 34/04 A2979 RMK A01 T03360037  RH  015%=      5-min Rain = 0
KAD1 202328Z 24008KT 34/04 A2979 RMK A01 T03360041  RH  016%=      5-min Rain = 0
KAD1 202329Z 24010KT 34/04 A2979 RMK A01 T03380038  RH  015%=      5-min Rain = 0
KAD1 202330Z 24010KT 34/04 A2979 RMK A01 T03410040  RH  015%=      5-min Rain = 0
KAD1 202331Z 23012KT 34/04 A2979 RMK A01 T03420038  RH  015%=      5-min Rain = 0
KAD1 202332Z 23012KT 34/03 A2979 RMK A01 T03430034  RH  014%=      5-min Rain = 0
KAD1 202333Z 23012KT 34/03 A2979 RMK A01 T03430031  RH  014%=      5-min Rain = 0
KAD1 202334Z 23013KT 34/03 A2979 RMK A01 T03440031  RH  014%=      5-min Rain = 0
KAD1 202335Z 23012KT 34/02 A2979 RMK A01 T03440020  RH  013%=      5-min Rain = 0
KAD1 202336Z 23012KT 34/04 A2979 RMK A01 T03440035  RH  014%=      5-min Rain = 0
KAD1 202337Z 23010KT 34/04 A2979 RMK A01 T03440042  RH  015%=      5-min Rain = 0
KAD1 202338Z 23011KT 34/04 A2979 RMK A01 T03440044  RH  015%=      5-min Rain = 0
KAD1 202339Z 22011KT 35/04 A2979 RMK A01 T03450040  RH  015%=      5-min Rain = 0
KAD1 202340Z 22014KT 35/03 A2979 RMK A01 T03450032  RH  014%=      5-min Rain = 0
KAD1 202341Z 23015KT 35/02 A2979 RMK A01 T03460019  RH  013%=      5-min Rain = 0
KAD1 202342Z 23013KT 35/02 A2979 RMK A01 T03460023  RH  013%=      5-min Rain = 0
KAD1 202343Z 23015KT 35/02 A2979 RMK A01 T03460018  RH  013%=      5-min Rain = 0
KAD1 202344Z 23013KT 35/02 A2979 RMK A01 T03460021  RH  013%=      5-min Rain = 0
KAD1 202345Z 23013KT 35/02 A2979 RMK A01 T03460020  RH  013%=      5-min Rain = 0
KAD1 202346Z 24012KT 35/03 A2979 RMK A01 T03460029  RH  014%=      5-min Rain = 0
KAD1 202347Z 24011KT 35/04 A2979 RMK A01 T03470036  RH  014%=      5-min Rain = 0
KAD1 202348Z 25012G17KT 35/04 A2979 RMK A01 T03470035  RH  014%=      5-min Rain = 0
KAD1 202349Z 25015KT 35/02 A2979 RMK A01 T03470023  RH  013%=      5-min Rain = 0
KAD1 202350Z 25013KT 35/01 A2978 RMK A01 T03470007  RH  012%=      5-min Rain = 0
KAD1 202351Z 25012KT 35/02 A2978 RMK A01 T03470022  RH  013%=      5-min Rain = 0
KAD1 202352Z 24011KT 35/03 A2979 RMK A01 T03470027  RH  013%=      5-min Rain = 0
KAD1 202353Z 24014KT 35/03 A2979 RMK A01 T03470027  RH  013%=      5-min Rain = 0
KAD1 202354Z 24015KT 35/01 A2978 RMK A01 T03450014  RH  012%=      5-min Rain = 0
KAD1 202355Z 24011KT 34/03 A2979 RMK A01 T03410026  RH  014%=      5-min Rain = 0
KAD1 202356Z 24012KT 34/03 A2979 RMK A01 T03360031  RH  015%=      5-min Rain = 0
KAD1 202357Z 25017KT 33/01 A2978 RMK A01 T03330013  RH  013%=      5-min Rain = 0
KAD1 202358Z 25014KT 33/00 A2979 RMK A01 T03330004  RH  012%=      5-min Rain = 0
KAD1 202359Z 24015KT 33/01 A2979 RMK A01 T03330008  RH  013%=      5-min Rain = 0
KAD1 210000Z 24014KT 33/01 A2979 RMK A01 T03320005  RH  012%=      5-min Rain = 0
KAD1 210001Z 24013KT 33/01 A2978 RMK A01 T03320010  RH  013%=      5-min Rain = 0
KAD1 210002Z 24013KT 33/01 A2978 RMK A01 T03330014  RH  013%=      5-min Rain = 0
KAD1 210003Z 24012KT 34/02 A2978 RMK A01 T03350015  RH  013%=      5-min Rain = 0
KAD1 210004Z 24013KT 34/01 A2978 RMK A01 T03370013  RH  013%=      5-min Rain = 0
KAD1 210005Z 24010KT 34/02 A2978 RMK A01 T03390020  RH  013%=      5-min Rain = 0
KAD1 210006Z 24012KT 34/02 A2978 RMK A01 T03390020  RH  013%=      5-min Rain = 0
KAD1 210007Z 24012KT 34/02 A2978 RMK A01 T03400020  RH  013%=      5-min Rain = 0
KAD1 210008Z 24010KT 34/02 A2978 RMK A01 T03400023  RH  014%=      5-min Rain = 0
KAD1 210009Z 24011KT 34/03 A2978 RMK A01 T03400028  RH  014%=      5-min Rain = 0
KAD1 210010Z 24010KT 34/02 A2978 RMK A01 T03400024  RH  014%=      5-min Rain = 0
KAD1 210011Z 24010KT 34/03 A2978 RMK A01 T03400032  RH  014%=      5-min Rain = 0
KAD1 210012Z 23011KT 34/03 A2978 RMK A01 T03390032  RH  015%=      5-min Rain = 0
KAD1 210013Z 23009KT 34/03 A2978 RMK A01 T03380034  RH  015%=      5-min Rain = 0
KAD1 210014Z 23010KT 34/04 A2978 RMK A01 T03380042  RH  016%=      5-min Rain = 0
KAD1 210015Z 24010KT 34/04 A2978 RMK A01 T03370035  RH  015%=      5-min Rain = 0
KAD1 210016Z 23013KT 34/02 A2978 RMK A01 T03370021  RH  014%=      5-min Rain = 0
KAD1 210017Z 23010KT 34/02 A2978 RMK A01 T03380021  RH  014%=      5-min Rain = 0
KAD1 210018Z 24011KT 34/03 A2978 RMK A01 T03380034  RH  015%=      5-min Rain = 0
KAD1 210019Z 24011KT 34/02 A2978 RMK A01 T03370023  RH  014%=      5-min Rain = 0
KAD1 210020Z 24010KT 34/03 A2978 RMK A01 T03370029  RH  014%=      5-min Rain = 0
KAD1 210021Z 24012KT 34/03 A2978 RMK A01 T03360029  RH  014%=      5-min Rain = 0
KAD1 210022Z 24010KT 34/03 A2978 RMK A01 T03370029  RH  014%=      5-min Rain = 0
KAD1 210023Z 23012KT 34/02 A2978 RMK A01 T03360022  RH  014%=      5-min Rain = 0
KAD1 210024Z 23011KT 34/02 A2978 RMK A01 T03350017  RH  013%=      5-min Rain = 0
KAD1 210025Z 23010KT 33/03 A2978 RMK A01 T03320028  RH  015%=      5-min Rain = 0
KAD1 210026Z 22010KT 33/03 A2978 RMK A01 T03270033  RH  016%=      5-min Rain = 0
KAD1 210027Z 23011KT 32/03 A2978 RMK A01 T03240029  RH  015%=      5-min Rain = 0
KAD1 210028Z 22011KT 32/02 A2978 RMK A01 T03220022  RH  015%=      5-min Rain = 0
KAD1 210029Z 22012KT 32/02 A2978 RMK A01 T03220017  RH  014%=      5-min Rain = 0
KAD1 210030Z 22009KT 32/02 A2978 RMK A01 T03230024  RH  015%=      5-min Rain = 0
KAD1 210031Z 22011KT 32/03 A2978 RMK A01 T03230029  RH  016%=      5-min Rain = 0
KAD1 210032Z 21010KT 32/03 A2978 RMK A01 T03230029  RH  016%=      5-min Rain = 0
KAD1 210033Z 21010KT 32/03 A2978 RMK A01 T03230034  RH  016%=      5-min Rain = 0
KAD1 210034Z 21009KT 32/04 A2978 RMK A01 T03230036  RH  016%=      5-min Rain = 0
KAD1 210035Z 22011KT 32/04 A2978 RMK A01 T03230036  RH  016%=      5-min Rain = 0
KAD1 210036Z 21011KT 32/04 A2978 RMK A01 T03220035  RH  016%=      5-min Rain = 0
KAD1 210037Z 21011KT 32/04 A2978 RMK A01 T03220038  RH  017%=      5-min Rain = 0
KAD1 210038Z 21011KT 32/04 A2978 RMK A01 T03220040  RH  017%=      5-min Rain = 0
KAD1 210039Z 21011KT 32/05 A2978 RMK A01 T03220046  RH  018%=      5-min Rain = 0
KAD1 210040Z 20011KT 32/05 A2978 RMK A01 T03210045  RH  018%=      5-min Rain = 0
KAD1 210041Z 21012KT 32/05 A2978 RMK A01 T03210045  RH  018%=      5-min Rain = 0
KAD1 210042Z 21011KT 32/05 A2978 RMK A01 T03210049  RH  018%=      5-min Rain = 0
KAD1 210043Z 21011KT 32/04 A2978 RMK A01 T03190044  RH  018%=      5-min Rain = 0
KAD1 210044Z 21011KT 32/04 A2978 RMK A01 T03170041  RH  017%=      5-min Rain = 0
KAD1 210045Z 21011KT 32/04 A2978 RMK A01 T03150043  RH  018%=      5-min Rain = 0
KAD1 210046Z 21010KT 31/04 A2978 RMK A01 T03120043  RH  018%=      5-min Rain = 0
KAD1 210047Z 21011KT 31/04 A2978 RMK A01 T03100042  RH  018%=      5-min Rain = 0
KAD1 210048Z 20011KT 31/04 A2978 RMK A01 T03080040  RH  018%=      5-min Rain = 0
KAD1 210049Z 20010KT 31/04 A2978 RMK A01 T03060041  RH  019%=      5-min Rain = 0
KAD1 210050Z 20010KT 30/04 A2978 RMK A01 T03030043  RH  019%=      5-min Rain = 0
KAD1 210051Z 21011KT 30/04 A2978 RMK A01 T03010039  RH  019%=      5-min Rain = 0
KAD1 210052Z 20012KT 30/04 A2978 RMK A01 T03010036  RH  019%=      5-min Rain = 0
KAD1 210053Z 20011KT 30/04 A2978 RMK A01 T03020037  RH  019%=      5-min Rain = 0
KAD1 210054Z 21011KT 30/04 A2978 RMK A01 T03030039  RH  019%=      5-min Rain = 0
KAD1 210055Z 21011KT 30/04 A2978 RMK A01 T03040040  RH  019%=      5-min Rain = 0
KAD1 210056Z 21011KT 31/04 A2978 RMK A01 T03050043  RH  019%=      5-min Rain = 0
KAD1 210057Z 21011KT 31/04 A2978 RMK A01 T03060043  RH  019%=      5-min Rain = 0
KAD1 210058Z 21011KT 31/05 A2978 RMK A01 T03070047  RH  019%=      5-min Rain = 0
KAD1 210059Z 21010KT 31/05 A2978 RMK A01 T03080049  RH  020%=      5-min Rain = 0
KAD1 210100Z 20011KT 31/05 A2978 RMK A01 T03080052  RH  020%=      5-min Rain = 0
KAD1 210101Z 21011KT 31/05 A2978 RMK A01 T03070053  RH  020%=      5-min Rain = 0
KAD1 210102Z 21011KT 31/05 A2978 RMK A01 T03070054  RH  020%=      5-min Rain = 0
KAD1 210103Z 21011KT 31/06 A2978 RMK A01 T03070056  RH  021%=      5-min Rain = 0
KAD1 210104Z 20010KT 31/06 A2978 RMK A01 T03060055  RH  021%=      5-min Rain = 0
KAD1 210105Z 20010KT 31/06 A2978 RMK A01 T03050058  RH  021%=      5-min Rain = 0
KAD1 210106Z 21010KT 30/06 A2978 RMK A01 T03040058  RH  021%=      5-min Rain = 0
KAD1 210107Z 21010KT 30/06 A2978 RMK A01 T03020059  RH  022%=      5-min Rain = 0
KAD1 210108Z 21010KT 30/06 A2978 RMK A01 T03010056  RH  021%=      5-min Rain = 0
KAD1 210109Z 21011KT 30/06 A2978 RMK A01 T03010060  RH  022%=      5-min Rain = 0
KAD1 210110Z 20011KT 30/06 A2978 RMK A01 T03010059  RH  022%=      5-min Rain = 0
KAD1 210111Z 20011KT 30/06 A2978 RMK A01 T03010055  RH  021%=      5-min Rain = 0
KAD1 210112Z 20011KT 30/06 A2978 RMK A01 T03020056  RH  021%=      5-min Rain = 0
KAD1 210113Z 20011KT 30/06 A2978 RMK A01 T03030058  RH  021%=      5-min Rain = 0
KAD1 210114Z 20011KT 30/06 A2978 RMK A01 T03020060  RH  022%=      5-min Rain = 0
KAD1 210115Z 20011KT 30/06 A2978 RMK A01 T03010058  RH  022%=      5-min Rain = 0
KAD1 210116Z 20011KT 30/06 A2978 RMK A01 T03000057  RH  022%=      5-min Rain = 0
KAD1 210117Z 20011KT 30/06 A2978 RMK A01 T03000056  RH  021%=      5-min Rain = 0
KAD1 210118Z 20010KT 30/06 A2978 RMK A01 T02990057  RH  022%=      5-min Rain = 0
KAD1 210119Z 20010KT 30/06 A2978 RMK A01 T02990060  RH  022%=      5-min Rain = 0
KAD1 210120Z 20010KT 30/06 A2978 RMK A01 T02980063  RH  023%=      5-min Rain = 0
KAD1 210121Z 20010KT 30/07 A2978 RMK A01 T02970065  RH  023%=      5-min Rain = 0
KAD1 210122Z 21010KT 30/07 A2978 RMK A01 T02950069  RH  024%=      5-min Rain = 0
KAD1 210123Z 20010KT 29/07 A2978 RMK A01 T02940069  RH  024%=      5-min Rain = 0
KAD1 210124Z 20009KT 29/07 A2978 RMK A01 T02930071  RH  025%=      5-min Rain = 0
KAD1 210125Z 20009KT 29/07 A2978 RMK A01 T02920073  RH  025%=      5-min Rain = 0
KAD1 210126Z 20009KT 29/08 A2978 RMK A01 T02900076  RH  026%=      5-min Rain = 0
KAD1 210127Z 20009KT 29/08 A2978 RMK A01 T02880077  RH  026%=      5-min Rain = 0
KAD1 210128Z 20009KT 29/08 A2978 RMK A01 T02870079  RH  027%=      5-min Rain = 0
KAD1 210129Z 20010KT 29/08 A2978 RMK A01 T02850081  RH  028%=      5-min Rain = 0
KAD1 210130Z 20010KT 28/08 A2978 RMK A01 T02830082  RH  028%=      5-min Rain = 0
KAD1 210131Z 20010KT 28/08 A2978 RMK A01 T02820081  RH  028%=      5-min Rain = 0
KAD1 210132Z 20010KT 28/08 A2978 RMK A01 T02810081  RH  029%=      5-min Rain = 0
KAD1 210133Z 20010KT 28/08 A2978 RMK A01 T02790082  RH  029%=      5-min Rain = 0
KAD1 210134Z 20010KT 28/08 A2978 RMK A01 T02770081  RH  029%=      5-min Rain = 0
KAD1 210135Z 20010KT 28/08 A2978 RMK A01 T02760081  RH  029%=      5-min Rain = 0
KAD1 210136Z 20010KT 28/08 A2978 RMK A01 T02750082  RH  030%=      5-min Rain = 0
KAD1 210137Z 20010KT 27/08 A2978 RMK A01 T02740082  RH  030%=      5-min Rain = 0
KAD1 210138Z 20010KT 27/08 A2978 RMK A01 T02720083  RH  030%=      5-min Rain = 0
KAD1 210139Z 20011KT 27/08 A2978 RMK A01 T02710081  RH  030%=      5-min Rain = 0
KAD1 210140Z 19011KT 27/08 A2978 RMK A01 T02710081  RH  030%=      5-min Rain = 0
KAD1 210141Z 19011KT 27/08 A2978 RMK A01 T02700082  RH  030%=      5-min Rain = 0
KAD1 210142Z 19010KT 27/08 A2978 RMK A01 T02700084  RH  031%=      5-min Rain = 0
KAD1 210143Z 20011KT 27/08 A2978 RMK A01 T02700084  RH  031%=      5-min Rain = 0
KAD1 210144Z 20011KT 27/08 A2978 RMK A01 T02690084  RH  031%=      5-min Rain = 0
KAD1 210145Z 20011KT 27/08 A2978 RMK A01 T02680084  RH  031%=      5-min Rain = 0
KAD1 210146Z 20011KT 27/08 A2978 RMK A01 T02670084  RH  032%=      5-min Rain = 0
KAD1 210147Z 20011KT 27/08 A2978 RMK A01 T02660083  RH  031%=      5-min Rain = 0
KAD1 210148Z 20011KT 27/08 A2978 RMK A01 T02660081  RH  031%=      5-min Rain = 0
KAD1 210149Z 20011KT 27/08 A2978 RMK A01 T02660080  RH  031%=      5-min Rain = 0
KAD1 210150Z 20011KT 27/08 A2978 RMK A01 T02660079  RH  031%=      5-min Rain = 0
KAD1 210151Z 20011KT 27/08 A2978 RMK A01 T02660079  RH  031%=      5-min Rain = 0
KAD1 210152Z 20011KT 27/08 A2978 RMK A01 T02660081  RH  031%=      5-min Rain = 0
KAD1 210153Z 20011KT 26/08 A2978 RMK A01 T02640081  RH  031%=      5-min Rain = 0
KAD1 210154Z 20011KT 26/08 A2978 RMK A01 T02630081  RH  032%=      5-min Rain = 0
KAD1 210155Z 20011KT 26/08 A2978 RMK A01 T02620080  RH  031%=      5-min Rain = 0
KAD1 210156Z 20011KT 26/08 A2978 RMK A01 T02620079  RH  031%=      5-min Rain = 0
KAD1 210157Z 20012KT 26/08 A2978 RMK A01 T02620077  RH  031%=      5-min Rain = 0
KAD1 210158Z 20011KT 26/08 A2978 RMK A01 T02620077  RH  031%=      5-min Rain = 0
KAD1 210159Z 20011KT 26/08 A2978 RMK A01 T02620076  RH  031%=      5-min Rain = 0
KAD1 210200Z 20011KT 26/08 A2978 RMK A01 T02620076  RH  031%=      5-min Rain = 0
KAD1 210201Z 20011KT 26/08 A2978 RMK A01 T02620076  RH  031%=      5-min Rain = 0
KAD1 210202Z 20011KT 26/08 A2978 RMK A01 T02610076  RH  031%=      5-min Rain = 0
KAD1 210203Z 20011KT 26/08 A2978 RMK A01 T02600076  RH  031%=      5-min Rain = 0
KAD1 210204Z 20011KT 26/08 A2978 RMK A01 T02590075  RH  031%=      5-min Rain = 0
KAD1 210205Z 20012KT 26/07 A2978 RMK A01 T02600073  RH  031%=      5-min Rain = 0
KAD1 210206Z 20012KT 26/07 A2978 RMK A01 T02610074  RH  030%=      5-min Rain = 0
KAD1 210207Z 20012KT 26/07 A2978 RMK A01 T02610074  RH  030%=      5-min Rain = 0
KAD1 210208Z 19012KT 26/08 A2978 RMK A01 T02610076  RH  031%=      5-min Rain = 0
KAD1 210209Z 19012KT 26/08 A2978 RMK A01 T02600079  RH  032%=      5-min Rain = 0
KAD1 210210Z 19012KT 26/08 A2978 RMK A01 T02600079  RH  032%=      5-min Rain = 0
KAD1 210211Z 19013KT 26/08 A2978 RMK A01 T02600080  RH  032%=      5-min Rain = 0
KAD1 210212Z 18012KT 26/08 A2978 RMK A01 T02590081  RH  032%=      5-min Rain = 0
KAD1 210213Z 18012KT 26/08 A2978 RMK A01 T02580082  RH  033%=      5-min Rain = 0
KAD1 210214Z 19012KT 26/08 A2978 RMK A01 T02570082  RH  033%=      5-min Rain = 0
KAD1 210215Z 19012KT 26/08 A2978 RMK A01 T02560083  RH  033%=      5-min Rain = 0
KAD1 210216Z 19013KT 25/08 A2978 RMK A01 T02540083  RH  034%=      5-min Rain = 0
KAD1 210217Z 19013KT 25/08 A2978 RMK A01 T02530081  RH  034%=      5-min Rain = 0
KAD1 210218Z 19013KT 25/08 A2978 RMK A01 T02530080  RH  033%=      5-min Rain = 0
KAD1 210219Z 19012KT 25/08 A2978 RMK A01 T02520079  RH  033%=      5-min Rain = 0
KAD1 210220Z 19012KT 25/08 A2978 RMK A01 T02520078  RH  033%=      5-min Rain = 0
KAD1 210221Z 19013KT 25/08 A2978 RMK A01 T02520078  RH  033%=      5-min Rain = 0
KAD1 210222Z 19012KT 25/08 A2978 RMK A01 T02510077  RH  033%=      5-min Rain = 0
KAD1 210223Z 19012KT 25/08 A2978 RMK A01 T02510077  RH  033%=      5-min Rain = 0
KAD1 210224Z 19013KT 25/08 A2978 RMK A01 T02500077  RH  033%=      5-min Rain = 0
KAD1 210225Z 20013KT 25/08 A2978 RMK A01 T02490077  RH  033%=      5-min Rain = 0
KAD1 210226Z 20013KT 25/08 A2978 RMK A01 T02480077  RH  034%=      5-min Rain = 0
KAD1 210227Z 19013KT 25/08 A2978 RMK A01 T02470077  RH  034%=      5-min Rain = 0
KAD1 210228Z 20013KT 25/08 A2978 RMK A01 T02470075  RH  033%=      5-min Rain = 0
KAD1 210229Z 20014KT 25/07 A2978 RMK A01 T02480074  RH  033%=      5-min Rain = 0
KAD1 210230Z 20013KT 25/07 A2978 RMK A01 T02490072  RH  032%=      5-min Rain = 0
KAD1 210231Z 20013KT 25/07 A2978 RMK A01 T02500072  RH  032%=      5-min Rain = 0
KAD1 210232Z 20013KT 25/07 A2978 RMK A01 T02500073  RH  032%=      5-min Rain = 0
KAD1 210233Z 20013KT 25/07 A2978 RMK A01 T02500071  RH  032%=      5-min Rain = 0
KAD1 210234Z 19013KT 25/07 A2978 RMK A01 T02510070  RH  031%=      5-min Rain = 0
KAD1 210235Z 19014KT 25/07 A2978 RMK A01 T02530069  RH  031%=      5-min Rain = 0
KAD1 210236Z 19015KT 25/07 A2978 RMK A01 T02530068  RH  031%=      5-min Rain = 0
KAD1 210237Z 19014KT 25/07 A2978 RMK A01 T02540067  RH  030%=      5-min Rain = 0
KAD1 210238Z 19014KT 26/07 A2978 RMK A01 T02550068  RH  030%=      5-min Rain = 0
KAD1 210239Z 19013KT 26/07 A2978 RMK A01 T02550067  RH  030%=      5-min Rain = 0
KAD1 210240Z 19014KT 26/07 A2978 RMK A01 T02560066  RH  030%=      5-min Rain = 0
KAD1 210241Z 19014KT 26/07 A2978 RMK A01 T02560065  RH  029%=      5-min Rain = 0
KAD1 210242Z 19014KT 26/07 A2978 RMK A01 T02570065  RH  029%=      5-min Rain = 0
KAD1 210243Z 19014KT 26/06 A2978 RMK A01 T02570064  RH  029%=      5-min Rain = 0
KAD1 210244Z 19014KT 26/06 A2978 RMK A01 T02570064  RH  029%=      5-min Rain = 0
KAD1 210245Z 19014KT 26/07 A2978 RMK A01 T02570065  RH  029%=      5-min Rain = 0
KAD1 210246Z 19014KT 26/07 A2978 RMK A01 T02560065  RH  029%=      5-min Rain = 0
KAD1 210247Z 19014KT 26/07 A2978 RMK A01 T02550065  RH  030%=      5-min Rain = 0
KAD1 210248Z 19014KT 25/07 A2978 RMK A01 T02540065  RH  030%=      5-min Rain = 0
KAD1 210249Z 19014KT 25/07 A2978 RMK A01 T02530067  RH  030%=      5-min Rain = 0
KAD1 210250Z 19013KT 25/07 A2978 RMK A01 T02510067  RH  031%=      5-min Rain = 0
KAD1 210251Z 19013KT 25/07 A2978 RMK A01 T02500068  RH  031%=      5-min Rain = 0
KAD1 210252Z 19013KT 25/07 A2978 RMK A01 T02480068  RH  031%=      5-min Rain = 0
KAD1 210253Z 19013KT 25/07 A2978 RMK A01 T02470068  RH  032%=      5-min Rain = 0
KAD1 210254Z 19014KT 25/07 A2978 RMK A01 T02460068  RH  032%=      5-min Rain = 0
KAD1 210255Z 19014KT 25/07 A2978 RMK A01 T02460067  RH  032%=      5-min Rain = 0
KAD1 210256Z 19014KT 25/07 A2978 RMK A01 T02450067  RH  032%=      5-min Rain = 0
KAD1 210257Z 19014KT 25/07 A2978 RMK A01 T02450065  RH  031%=      5-min Rain = 0
KAD1 210258Z 19014KT 25/07 A2978 RMK A01 T02460065  RH  031%=      5-min Rain = 0
KAD1 210259Z 19014KT 25/07 A2978 RMK A01 T02460065  RH  031%=      5-min Rain = 0
KAD1 210300Z 19014KT 25/06 A2978 RMK A01 T02460064  RH  031%=      5-min Rain = 0
KAD1 210301Z 19015KT 25/06 A2979 RMK A01 T02460064  RH  031%=      5-min Rain = 0
KAD1 210302Z 19014KT 25/06 A2978 RMK A01 T02460064  RH  031%=      5-min Rain = 0
KAD1 210303Z 19014KT 25/06 A2978 RMK A01 T02460064  RH  031%=      5-min Rain = 0
KAD1 210304Z 19013KT 25/06 A2978 RMK A01 T02450064  RH  031%=      5-min Rain = 0
KAD1 210305Z 19014KT 24/06 A2979 RMK A01 T02440064  RH  031%=      5-min Rain = 0
KAD1 210306Z 19013KT 24/07 A2979 RMK A01 T02440065  RH  032%=      5-min Rain = 0
KAD1 210307Z 19013KT 24/07 A2979 RMK A01 T02420066  RH  032%=      5-min Rain = 0
KAD1 210308Z 19014KT 24/07 A2979 RMK A01 T02410065  RH  032%=      5-min Rain = 0
KAD1 210309Z 19013KT 24/07 A2979 RMK A01 T02410066  RH  032%=      5-min Rain = 0
KAD1 210310Z 19013KT 24/07 A2979 RMK A01 T02400066  RH  033%=      5-min Rain = 0
KAD1 210311Z 19013KT 24/07 A2979 RMK A01 T02400065  RH  033%=      5-min Rain = 0
KAD1 210312Z 19013KT 24/07 A2979 RMK A01 T02390066  RH  033%=      5-min Rain = 0
KAD1 210313Z 19014KT 24/07 A2979 RMK A01 T02380066  RH  033%=      5-min Rain = 0
KAD1 210314Z 19014KT 24/07 A2979 RMK A01 T02370065  RH  033%=      5-min Rain = 0
KAD1 210315Z 19014KT 24/06 A2979 RMK A01 T02380063  RH  032%=      5-min Rain = 0
KAD1 210316Z 19014KT 24/06 A2979 RMK A01 T02380062  RH  032%=      5-min Rain = 0
KAD1 210317Z 19013KT 24/06 A2979 RMK A01 T02390061  RH  032%=      5-min Rain = 0
KAD1 210318Z 20013KT 24/06 A2979 RMK A01 T02390061  RH  032%=      5-min Rain = 0
KAD1 210319Z 20014KT 24/06 A2979 RMK A01 T02390061  RH  032%=      5-min Rain = 0
KAD1 210320Z 19013KT 24/06 A2979 RMK A01 T02390060  RH  031%=      5-min Rain = 0
KAD1 210321Z 20014KT 24/06 A2979 RMK A01 T02400060  RH  031%=      5-min Rain = 0
KAD1 210322Z 20014KT 24/06 A2979 RMK A01 T02410059  RH  031%=      5-min Rain = 0
KAD1 210323Z 20014KT 24/06 A2979 RMK A01 T02410058  RH  031%=      5-min Rain = 0
KAD1 210324Z 20015KT 24/06 A2979 RMK A01 T02420057  RH  030%=      5-min Rain = 0
KAD1 210325Z 20015KT 24/06 A2979 RMK A01 T02430058  RH  030%=      5-min Rain = 0
KAD1 210326Z 20014KT 24/06 A2979 RMK A01 T02420058  RH  030%=      5-min Rain = 0
KAD1 210327Z 20015KT 24/06 A2979 RMK A01 T02420058  RH  031%=      5-min Rain = 0
KAD1 210328Z 20014KT 24/06 A2979 RMK A01 T02420058  RH  031%=      5-min Rain = 0
KAD1 210329Z 19015KT 24/06 A2979 RMK A01 T02410058  RH  031%=      5-min Rain = 0
KAD1 210330Z 20015KT 24/06 A2979 RMK A01 T02400058  RH  031%=      5-min Rain = 0
KAD1 210331Z 20014KT 24/06 A2979 RMK A01 T02400058  RH  031%=      5-min Rain = 0
KAD1 210332Z 19015KT 24/06 A2979 RMK A01 T02400058  RH  031%=      5-min Rain = 0
KAD1 210333Z 19014KT 24/06 A2979 RMK A01 T02400057  RH  031%=      5-min Rain = 0
KAD1 210334Z 20014KT 24/06 A2979 RMK A01 T02400058  RH  031%=      5-min Rain = 0
KAD1 210335Z 19014KT 24/06 A2979 RMK A01 T02390057  RH  031%=      5-min Rain = 0
KAD1 210336Z 19014KT 24/06 A2979 RMK A01 T02380057  RH  031%=      5-min Rain = 0
KAD1 210337Z 19014KT 24/06 A2979 RMK A01 T02380058  RH  031%=      5-min Rain = 0
KAD1 210338Z 19015KT 24/06 A2979 RMK A01 T02360058  RH  032%=      5-min Rain = 0
KAD1 210339Z 19014KT 24/06 A2979 RMK A01 T02350058  RH  032%=      5-min Rain = 0
KAD1 210340Z 19015KT 24/06 A2979 RMK A01 T02350058  RH  032%=      5-min Rain = 0
KAD1 210341Z 19014KT 24/06 A2979 RMK A01 T02350058  RH  032%=      5-min Rain = 0
KAD1 210342Z 20014KT 23/06 A2979 RMK A01 T02340058  RH  032%=      5-min Rain = 0
KAD1 210343Z 20014KT 23/06 A2979 RMK A01 T02330058  RH  032%=      5-min Rain = 0
KAD1 210344Z 20014KT 23/06 A298 RMK A01 T02320059  RH  033%=      5-min Rain = 0
KAD1 210345Z 19014KT 23/06 A2979 RMK A01 T02310058  RH  033%=      5-min Rain = 0
KAD1 210346Z 20015KT 23/06 A298 RMK A01 T02320057  RH  032%=      5-min Rain = 0
KAD1 210347Z 20015KT 23/06 A298 RMK A01 T02330057  RH  032%=      5-min Rain = 0
KAD1 210348Z 20014KT 23/06 A298 RMK A01 T02330056  RH  032%=      5-min Rain = 0
KAD1 210349Z 20015KT 23/06 A298 RMK A01 T02330056  RH  032%=      5-min Rain = 0
KAD1 210350Z 19014KT 23/06 A298 RMK A01 T02320056  RH  032%=      5-min Rain = 0
KAD1 210351Z 19014KT 23/06 A298 RMK A01 T02330056  RH  032%=      5-min Rain = 0
KAD1 210352Z 20014KT 23/06 A298 RMK A01 T02330056  RH  032%=      5-min Rain = 0
KAD1 210353Z 19014KT 23/06 A298 RMK A01 T02330056  RH  032%=      5-min Rain = 0
KAD1 210354Z 19014KT 23/06 A298 RMK A01 T02320056  RH  032%=      5-min Rain = 0
KAD1 210355Z 19014KT 23/06 A298 RMK A01 T02320055  RH  032%=      5-min Rain = 0
KAD1 210356Z 19015KT 23/06 A298 RMK A01 T02320055  RH  032%=      5-min Rain = 0
KAD1 210357Z 19015KT 23/05 A298 RMK A01 T02330054  RH  031%=      5-min Rain = 0
KAD1 210358Z 19015KT 23/05 A298 RMK A01 T02330054  RH  031%=      5-min Rain = 0
KAD1 210359Z 19015KT 23/05 A298 RMK A01 T02320054  RH  031%=      5-min Rain = 0
KAD1 210400Z 19015KT 23/06 A298 RMK A01 T02320055  RH  032%=      5-min Rain = 0
KAD1 210401Z 19015KT 23/06 A298 RMK A01 T02320055  RH  032%=      5-min Rain = 0
KAD1 210402Z 19015KT 23/06 A298 RMK A01 T02310055  RH  032%=      5-min Rain = 0
KAD1 210403Z 19015KT 23/06 A298 RMK A01 T02300055  RH  032%=      5-min Rain = 0
KAD1 210404Z 20015KT 23/06 A298 RMK A01 T02300055  RH  032%=      5-min Rain = 0
KAD1 210405Z 19014KT 23/06 A298 RMK A01 T02300055  RH  032%=      5-min Rain = 0
KAD1 210406Z 20015KT 23/06 A298 RMK A01 T02290055  RH  032%=      5-min Rain = 0
KAD1 210407Z 20015KT 23/05 A298 RMK A01 T02290054  RH  032%=      5-min Rain = 0
KAD1 210408Z 19015KT 23/05 A298 RMK A01 T02290054  RH  032%=      5-min Rain = 0
KAD1 210409Z 19015KT 23/05 A298 RMK A01 T02290053  RH  032%=      5-min Rain = 0
KAD1 210410Z 19015KT 23/05 A298 RMK A01 T02290053  RH  032%=      5-min Rain = 0
KAD1 210411Z 19015KT 23/05 A298 RMK A01 T02290052  RH  032%=      5-min Rain = 0
KAD1 210412Z 19015KT 23/05 A2979 RMK A01 T02300052  RH  032%=      5-min Rain = 0
KAD1 210413Z 19015KT 23/05 A2979 RMK A01 T02290052  RH  032%=      5-min Rain = 0
KAD1 210414Z 19016KT 23/05 A2979 RMK A01 T02290052  RH  032%=      5-min Rain = 0
KAD1 210415Z 19015KT 23/05 A2979 RMK A01 T02290052  RH  032%=      5-min Rain = 0
KAD1 210416Z 19016KT 23/05 A2979 RMK A01 T02290052  RH  032%=      5-min Rain = 0
KAD1 210417Z 19015KT 23/05 A2979 RMK A01 T02280053  RH  032%=      5-min Rain = 0
KAD1 210418Z 19015KT 23/05 A2979 RMK A01 T02270053  RH  032%=      5-min Rain = 0
KAD1 210419Z 19015KT 23/05 A2979 RMK A01 T02260054  RH  033%=      5-min Rain = 0
KAD1 210420Z 19014KT 23/05 A2979 RMK A01 T02250053  RH  033%=      5-min Rain = 0
KAD1 210421Z 19015KT 23/05 A2979 RMK A01 T02250053  RH  033%=      5-min Rain = 0
KAD1 210422Z 19014KT 22/05 A2979 RMK A01 T02240054  RH  033%=      5-min Rain = 0
KAD1 210423Z 19014KT 22/06 A298 RMK A01 T02220055  RH  034%=      5-min Rain = 0
KAD1 210424Z 19014KT 22/06 A298 RMK A01 T02210055  RH  034%=      5-min Rain = 0
KAD1 210425Z 20014KT 22/06 A298 RMK A01 T02200055  RH  034%=      5-min Rain = 0
KAD1 210426Z 19013KT 22/06 A298 RMK A01 T02180055  RH  034%=      5-min Rain = 0
KAD1 210427Z 19013KT 22/06 A298 RMK A01 T02170055  RH  035%=      5-min Rain = 0
KAD1 210428Z 20013KT 22/06 A298 RMK A01 T02170055  RH  035%=      5-min Rain = 0
KAD1 210429Z 20014KT 22/06 A298 RMK A01 T02160055  RH  035%=      5-min Rain = 0
KAD1 210430Z 20013KT 22/06 A298 RMK A01 T02160055  RH  035%=      5-min Rain = 0
KAD1 210431Z 19014KT 22/06 A298 RMK A01 T02150055  RH  035%=      5-min Rain = 0
KAD1 210432Z 20013KT 22/06 A298 RMK A01 T02150055  RH  035%=      5-min Rain = 0
KAD1 210433Z 20013KT 22/06 A298 RMK A01 T02150055  RH  035%=      5-min Rain = 0
KAD1 210434Z 20013KT 22/05 A298 RMK A01 T02150054  RH  035%=      5-min Rain = 0
KAD1 210435Z 20013KT 22/05 A298 RMK A01 T02150054  RH  035%=      5-min Rain = 0
KAD1 210436Z 20014KT 21/05 A298 RMK A01 T02140054  RH  035%=      5-min Rain = 0
KAD1 210437Z 20014KT 21/05 A298 RMK A01 T02140053  RH  035%=      5-min Rain = 0
KAD1 210438Z 20013KT 22/05 A298 RMK A01 T02150053  RH  035%=      5-min Rain = 0
KAD1 210439Z 20014KT 22/05 A298 RMK A01 T02150052  RH  035%=      5-min Rain = 0
KAD1 210440Z 20014KT 22/05 A298 RMK A01 T02160052  RH  034%=      5-min Rain = 0
KAD1 210441Z 20013KT 22/05 A298 RMK A01 T02160052  RH  034%=      5-min Rain = 0
KAD1 210442Z 20014KT 22/05 A298 RMK A01 T02160052  RH  034%=      5-min Rain = 0
KAD1 210443Z 20013KT 22/05 A298 RMK A01 T02160052  RH  034%=      5-min Rain = 0
KAD1 210444Z 20012KT 22/05 A298 RMK A01 T02160052  RH  034%=      5-min Rain = 0
KAD1 210445Z 20013KT 22/05 A298 RMK A01 T02150053  RH  035%=      5-min Rain = 0
KAD1 210446Z 20014KT 22/05 A298 RMK A01 T02150051  RH  034%=      5-min Rain = 0
KAD1 210447Z 20014KT 22/05 A298 RMK A01 T02150051  RH  034%=      5-min Rain = 0
KAD1 210448Z 20014KT 22/05 A298 RMK A01 T02160049  RH  034%=      5-min Rain = 0
KAD1 210449Z 20014KT 22/05 A298 RMK A01 T02180049  RH  033%=      5-min Rain = 0
KAD1 210450Z 20014KT 22/05 A298 RMK A01 T02190048  RH  033%=      5-min Rain = 0
KAD1 210451Z 20015KT 22/05 A298 RMK A01 T02200047  RH  032%=      5-min Rain = 0
KAD1 210452Z 20014KT 22/05 A298 RMK A01 T02210046  RH  032%=      5-min Rain = 0
KAD1 210453Z 20013KT 22/05 A298 RMK A01 T02220048  RH  032%=      5-min Rain = 0
KAD1 210454Z 20014KT 22/05 A298 RMK A01 T02220048  RH  032%=      5-min Rain = 0
KAD1 210455Z 20014KT 22/05 A298 RMK A01 T02210049  RH  032%=      5-min Rain = 0
KAD1 210456Z 20013KT 22/05 A298 RMK A01 T02200049  RH  033%=      5-min Rain = 0
KAD1 210457Z 20014KT 22/05 A298 RMK A01 T02190050  RH  033%=      5-min Rain = 0
KAD1 210458Z 20014KT 22/05 A2979 RMK A01 T02190049  RH  033%=      5-min Rain = 0
KAD1 210459Z 20014KT 22/05 A2979 RMK A01 T02190048  RH  033%=      5-min Rain = 0

Page generated in 0.1407 seconds.